<?xml version="1.0" encoding="UTF-8" standalone="no" ?>
<gpx xmlns="http://www.topografix.com/GPX/1/1" creator="www.plotaroute.com" version="1.1"  xmlns:xsi="http://www.w3.org/2001/XMLSchema-instance" xsi:schemaLocation="http://www.topografix.com/GPX/1/1 http://www.topografix.com/GPX/1/1/gpx.xsd">
<metadata>
<desc>Route created on plotaroute.com</desc>
</metadata>
<trk>
<name>1990-leJog-Day7</name>
<trkseg>
<trkpt lat="53.581858" lon="-2.857511">
<ele>31</ele>
<time>2020-02-20T00:00:00Z</time></trkpt>
<trkpt lat="53.581114" lon="-2.857014">
<ele>33</ele>
<time>2020-02-20T00:00:16Z</time></trkpt>
<trkpt lat="53.580004" lon="-2.856568">
<ele>34</ele>
<time>2020-02-20T00:00:39Z</time></trkpt>
<trkpt lat="53.580535" lon="-2.853952">
<ele>29</ele>
<time>2020-02-20T00:01:12Z</time></trkpt>
<trkpt lat="53.580686" lon="-2.852381">
<ele>32</ele>
<time>2020-02-20T00:01:31Z</time></trkpt>
<trkpt lat="53.581733" lon="-2.850029">
<ele>37</ele>
<time>2020-02-20T00:02:06Z</time></trkpt>
<trkpt lat="53.583374" lon="-2.847971">
<ele>33</ele>
<time>2020-02-20T00:02:47Z</time></trkpt>
<trkpt lat="53.584183" lon="-2.845182">
<ele>31</ele>
<time>2020-02-20T00:03:24Z</time></trkpt>
<trkpt lat="53.585145" lon="-2.841094">
<ele>29</ele>
<time>2020-02-20T00:04:16Z</time></trkpt>
<trkpt lat="53.585641" lon="-2.836304">
<ele>27</ele>
<time>2020-02-20T00:05:14Z</time></trkpt>
<trkpt lat="53.585635" lon="-2.833997">
<ele>28</ele>
<time>2020-02-20T00:05:41Z</time></trkpt>
<trkpt lat="53.585976" lon="-2.83272">
<ele>27</ele>
<time>2020-02-20T00:05:58Z</time></trkpt>
<trkpt lat="53.587145" lon="-2.830762">
<ele>28</ele>
<time>2020-02-20T00:06:31Z</time></trkpt>
<trkpt lat="53.588335" lon="-2.826396">
<ele>23</ele>
<time>2020-02-20T00:07:28Z</time></trkpt>
<trkpt lat="53.588399" lon="-2.824379">
<ele>25</ele>
<time>2020-02-20T00:07:52Z</time></trkpt>
<trkpt lat="53.5891" lon="-2.822694">
<ele>24</ele>
<time>2020-02-20T00:08:17Z</time></trkpt>
<trkpt lat="53.589458" lon="-2.820423">
<ele>22</ele>
<time>2020-02-20T00:08:44Z</time></trkpt>
<trkpt lat="53.590101" lon="-2.81982">
<ele>21</ele>
<time>2020-02-20T00:08:59Z</time></trkpt>
<trkpt lat="53.590916" lon="-2.821082">
<ele>20</ele>
<time>2020-02-20T00:09:21Z</time></trkpt>
<trkpt lat="53.591608" lon="-2.82053">
<ele>19</ele>
<time>2020-02-20T00:09:37Z</time></trkpt>
<trkpt lat="53.591948" lon="-2.81994">
<ele>18</ele>
<time>2020-02-20T00:09:47Z</time></trkpt>
<trkpt lat="53.592587" lon="-2.817422">
<ele>18</ele>
<time>2020-02-20T00:10:19Z</time></trkpt>
<trkpt lat="53.594074" lon="-2.813829">
<ele>15</ele>
<time>2020-02-20T00:11:11Z</time></trkpt>
<trkpt lat="53.594723" lon="-2.811533">
<ele>14</ele>
<time>2020-02-20T00:11:41Z</time></trkpt>
<trkpt lat="53.595751" lon="-2.809497">
<ele>14</ele>
<time>2020-02-20T00:12:13Z</time></trkpt>
<trkpt lat="53.596516" lon="-2.808562">
<ele>14</ele>
<time>2020-02-20T00:12:32Z</time></trkpt>
<trkpt lat="53.59827" lon="-2.803046">
<ele>13</ele>
<time>2020-02-20T00:13:47Z</time></trkpt>
<trkpt lat="53.599619" lon="-2.801132">
<ele>12</ele>
<time>2020-02-20T00:14:22Z</time></trkpt>
<trkpt lat="53.600979" lon="-2.799673">
<ele>11</ele>
<time>2020-02-20T00:14:54Z</time></trkpt>
<trkpt lat="53.601669" lon="-2.798034">
<ele>12</ele>
<time>2020-02-20T00:15:18Z</time></trkpt>
<trkpt lat="53.602094" lon="-2.795976">
<ele>10</ele>
<time>2020-02-20T00:15:44Z</time></trkpt>
<trkpt lat="53.602826" lon="-2.794191">
<ele>10</ele>
<time>2020-02-20T00:16:10Z</time></trkpt>
<trkpt lat="53.604322" lon="-2.793">
<ele>9</ele>
<time>2020-02-20T00:16:43Z</time></trkpt>
<trkpt lat="53.604696" lon="-2.792915">
<ele>9</ele>
<time>2020-02-20T00:16:51Z</time></trkpt>
<trkpt lat="53.605836" lon="-2.793255">
<ele>10</ele>
<time>2020-02-20T00:17:14Z</time></trkpt>
<trkpt lat="53.606798" lon="-2.793195">
<ele>8</ele>
<time>2020-02-20T00:17:33Z</time></trkpt>
<trkpt lat="53.608999" lon="-2.788663">
<ele>9</ele>
<time>2020-02-20T00:18:43Z</time></trkpt>
<trkpt lat="53.610785" lon="-2.78431">
<ele>9</ele>
<time>2020-02-20T00:19:46Z</time></trkpt>
<trkpt lat="53.611955" lon="-2.783585">
<ele>9</ele>
<time>2020-02-20T00:20:11Z</time></trkpt>
<trkpt lat="53.612789" lon="-2.781971">
<ele>13</ele>
<time>2020-02-20T00:20:36Z</time></trkpt>
<trkpt lat="53.61403" lon="-2.782369">
<ele>13</ele>
<time>2020-02-20T00:21:01Z</time></trkpt>
<trkpt lat="53.615171" lon="-2.78247">
<ele>15</ele>
<time>2020-02-20T00:21:24Z</time></trkpt>
<trkpt lat="53.615511" lon="-2.780239">
<ele>17</ele>
<time>2020-02-20T00:21:52Z</time></trkpt>
<trkpt lat="53.615256" lon="-2.775003">
<ele>28</ele>
<time>2020-02-20T00:22:54Z</time></trkpt>
<trkpt lat="53.615407" lon="-2.774091">
<ele>30</ele>
<time>2020-02-20T00:23:05Z</time></trkpt>
<trkpt lat="53.615552" lon="-2.774246">
<ele>29</ele>
<time>2020-02-20T00:23:09Z</time></trkpt>
<trkpt lat="53.616163" lon="-2.773248">
<ele>30</ele>
<time>2020-02-20T00:23:26Z</time></trkpt>
<trkpt lat="53.617273" lon="-2.772209">
<ele>30</ele>
<time>2020-02-20T00:23:51Z</time></trkpt>
<trkpt lat="53.617161" lon="-2.77015">
<ele>34</ele>
<time>2020-02-20T00:24:16Z</time></trkpt>
<trkpt lat="53.618652" lon="-2.769274">
<ele>33</ele>
<time>2020-02-20T00:24:47Z</time></trkpt>
<trkpt lat="53.61905" lon="-2.769214">
<ele>32</ele>
<time>2020-02-20T00:24:55Z</time></trkpt>
<trkpt lat="53.619584" lon="-2.768399">
<ele>33</ele>
<time>2020-02-20T00:25:10Z</time></trkpt>
<trkpt lat="53.621035" lon="-2.767497">
<ele>35</ele>
<time>2020-02-20T00:25:41Z</time></trkpt>
<trkpt lat="53.620689" lon="-2.766104">
<ele>36</ele>
<time>2020-02-20T00:25:59Z</time></trkpt>
<trkpt lat="53.620689" lon="-2.76504">
<ele>36</ele>
<time>2020-02-20T00:26:11Z</time></trkpt>
<trkpt lat="53.620984" lon="-2.764345">
<ele>37</ele>
<time>2020-02-20T00:26:22Z</time></trkpt>
<trkpt lat="53.622177" lon="-2.763701">
<ele>37</ele>
<time>2020-02-20T00:26:47Z</time></trkpt>
<trkpt lat="53.622433" lon="-2.763131">
<ele>37</ele>
<time>2020-02-20T00:26:55Z</time></trkpt>
<trkpt lat="53.621714" lon="-2.76023">
<ele>39</ele>
<time>2020-02-20T00:27:33Z</time></trkpt>
<trkpt lat="53.621726" lon="-2.759792">
<ele>39</ele>
<time>2020-02-20T00:27:38Z</time></trkpt>
<trkpt lat="53.623438" lon="-2.75638">
<ele>41</ele>
<time>2020-02-20T00:28:31Z</time></trkpt>
<trkpt lat="53.628496" lon="-2.752614">
<ele>36</ele>
<time>2020-02-20T00:30:22Z</time></trkpt>
<trkpt lat="53.630671" lon="-2.753256">
<ele>33</ele>
<time>2020-02-20T00:31:06Z</time></trkpt>
<trkpt lat="53.630715" lon="-2.752209">
<ele>33</ele>
<time>2020-02-20T00:31:18Z</time></trkpt>
<trkpt lat="53.630916" lon="-2.751684">
<ele>34</ele>
<time>2020-02-20T00:31:26Z</time></trkpt>
<trkpt lat="53.631943" lon="-2.751611">
<ele>36</ele>
<time>2020-02-20T00:31:46Z</time></trkpt>
<trkpt lat="53.632775" lon="-2.750887">
<ele>37</ele>
<time>2020-02-20T00:32:05Z</time></trkpt>
<trkpt lat="53.634607" lon="-2.750039">
<ele>35</ele>
<time>2020-02-20T00:32:43Z</time></trkpt>
<trkpt lat="53.638324" lon="-2.748913">
<ele>28</ele>
<time>2020-02-20T00:33:59Z</time></trkpt>
<trkpt lat="53.639569" lon="-2.749126">
<ele>27</ele>
<time>2020-02-20T00:34:24Z</time></trkpt>
<trkpt lat="53.640579" lon="-2.749104">
<ele>23</ele>
<time>2020-02-20T00:34:44Z</time></trkpt>
<trkpt lat="53.64105" lon="-2.748794">
<ele>21</ele>
<time>2020-02-20T00:34:54Z</time></trkpt>
<trkpt lat="53.641195" lon="-2.748631">
<ele>21</ele>
<time>2020-02-20T00:34:58Z</time></trkpt>
<trkpt lat="53.641299" lon="-2.747842">
<ele>21</ele>
<time>2020-02-20T00:35:07Z</time></trkpt>
<trkpt lat="53.642558" lon="-2.745978">
<ele>16</ele>
<time>2020-02-20T00:35:41Z</time></trkpt>
<trkpt lat="53.643044" lon="-2.744519">
<ele>18</ele>
<time>2020-02-20T00:36:01Z</time></trkpt>
<trkpt lat="53.643953" lon="-2.742781">
<ele>21</ele>
<time>2020-02-20T00:36:28Z</time></trkpt>
<trkpt lat="53.646365" lon="-2.739359">
<ele>24</ele>
<time>2020-02-20T00:37:32Z</time></trkpt>
<trkpt lat="53.646676" lon="-2.737205">
<ele>28</ele>
<time>2020-02-20T00:37:58Z</time></trkpt>
<trkpt lat="53.647834" lon="-2.73747">
<ele>25</ele>
<time>2020-02-20T00:38:21Z</time></trkpt>
<trkpt lat="53.64895" lon="-2.737">
<ele>24</ele>
<time>2020-02-20T00:38:44Z</time></trkpt>
<trkpt lat="53.649449" lon="-2.735564">
<ele>24</ele>
<time>2020-02-20T00:39:04Z</time></trkpt>
<trkpt lat="53.650151" lon="-2.734927">
<ele>24</ele>
<time>2020-02-20T00:39:20Z</time></trkpt>
<trkpt lat="53.650412" lon="-2.734341">
<ele>24</ele>
<time>2020-02-20T00:39:29Z</time></trkpt>
<trkpt lat="53.650796" lon="-2.734002">
<ele>24</ele>
<time>2020-02-20T00:39:37Z</time></trkpt>
<trkpt lat="53.651018" lon="-2.733119">
<ele>25</ele>
<time>2020-02-20T00:39:49Z</time></trkpt>
<trkpt lat="53.652599" lon="-2.734848">
<ele>21</ele>
<time>2020-02-20T00:40:27Z</time></trkpt>
<trkpt lat="53.653968" lon="-2.734802">
<ele>16</ele>
<time>2020-02-20T00:40:54Z</time></trkpt>
<trkpt lat="53.654657" lon="-2.735171">
<ele>15</ele>
<time>2020-02-20T00:41:09Z</time></trkpt>
<trkpt lat="53.655048" lon="-2.735164">
<ele>16</ele>
<time>2020-02-20T00:41:16Z</time></trkpt>
<trkpt lat="53.655584" lon="-2.734761">
<ele>17</ele>
<time>2020-02-20T00:41:28Z</time></trkpt>
<trkpt lat="53.657562" lon="-2.73208">
<ele>23</ele>
<time>2020-02-20T00:42:19Z</time></trkpt>
<trkpt lat="53.658463" lon="-2.731294">
<ele>22</ele>
<time>2020-02-20T00:42:39Z</time></trkpt>
<trkpt lat="53.659733" lon="-2.731223">
<ele>21</ele>
<time>2020-02-20T00:43:05Z</time></trkpt>
<trkpt lat="53.660545" lon="-2.730746">
<ele>21</ele>
<time>2020-02-20T00:43:22Z</time></trkpt>
<trkpt lat="53.662023" lon="-2.730345">
<ele>20</ele>
<time>2020-02-20T00:43:52Z</time></trkpt>
<trkpt lat="53.662458" lon="-2.730043">
<ele>21</ele>
<time>2020-02-20T00:44:01Z</time></trkpt>
<trkpt lat="53.662001" lon="-2.725009">
<ele>23</ele>
<time>2020-02-20T00:45:02Z</time></trkpt>
<trkpt lat="53.662963" lon="-2.724676">
<ele>22</ele>
<time>2020-02-20T00:45:22Z</time></trkpt>
<trkpt lat="53.664303" lon="-2.724653">
<ele>23</ele>
<time>2020-02-20T00:45:48Z</time></trkpt>
<trkpt lat="53.666217" lon="-2.724244">
<ele>19</ele>
<time>2020-02-20T00:46:27Z</time></trkpt>
<trkpt lat="53.668325" lon="-2.721835">
<ele>25</ele>
<time>2020-02-20T00:47:18Z</time></trkpt>
<trkpt lat="53.676881" lon="-2.71865">
<ele>24</ele>
<time>2020-02-20T00:50:14Z</time></trkpt>
<trkpt lat="53.678479" lon="-2.717718">
<ele>23</ele>
<time>2020-02-20T00:50:48Z</time></trkpt>
<trkpt lat="53.679013" lon="-2.717632">
<ele>23</ele>
<time>2020-02-20T00:50:58Z</time></trkpt>
<trkpt lat="53.682854" lon="-2.717519">
<ele>19</ele>
<time>2020-02-20T00:52:15Z</time></trkpt>
<trkpt lat="53.683018" lon="-2.717913">
<ele>18</ele>
<time>2020-02-20T00:52:21Z</time></trkpt>
<trkpt lat="53.683086" lon="-2.718355">
<ele>18</ele>
<time>2020-02-20T00:52:26Z</time></trkpt>
<trkpt lat="53.683512" lon="-2.718714">
<ele>18</ele>
<time>2020-02-20T00:52:36Z</time></trkpt>
<trkpt lat="53.684579" lon="-2.720662">
<ele>19</ele>
<time>2020-02-20T00:53:07Z</time></trkpt>
<trkpt lat="53.68523" lon="-2.721349">
<ele>18</ele>
<time>2020-02-20T00:53:23Z</time></trkpt>
<trkpt lat="53.686334" lon="-2.72206">
<ele>18</ele>
<time>2020-02-20T00:53:46Z</time></trkpt>
<trkpt lat="53.688408" lon="-2.72297">
<ele>19</ele>
<time>2020-02-20T00:54:29Z</time></trkpt>
<trkpt lat="53.688919" lon="-2.723154">
<ele>20</ele>
<time>2020-02-20T00:54:40Z</time></trkpt>
<trkpt lat="53.690003" lon="-2.723202">
<ele>21</ele>
<time>2020-02-20T00:55:02Z</time></trkpt>
<trkpt lat="53.69078" lon="-2.722963">
<ele>21</ele>
<time>2020-02-20T00:55:17Z</time></trkpt>
<trkpt lat="53.692182" lon="-2.722166">
<ele>19</ele>
<time>2020-02-20T00:55:47Z</time></trkpt>
<trkpt lat="53.692764" lon="-2.722019">
<ele>19</ele>
<time>2020-02-20T00:55:59Z</time></trkpt>
<trkpt lat="53.695225" lon="-2.721952">
<ele>21</ele>
<time>2020-02-20T00:56:48Z</time></trkpt>
<trkpt lat="53.696164" lon="-2.721722">
<ele>24</ele>
<time>2020-02-20T00:57:07Z</time></trkpt>
<trkpt lat="53.697504" lon="-2.7211">
<ele>25</ele>
<time>2020-02-20T00:57:35Z</time></trkpt>
<trkpt lat="53.699931" lon="-2.718976">
<ele>25</ele>
<time>2020-02-20T00:58:30Z</time></trkpt>
<trkpt lat="53.70061" lon="-2.718124">
<ele>25</ele>
<time>2020-02-20T00:58:47Z</time></trkpt>
<trkpt lat="53.700715" lon="-2.718584">
<ele>25</ele>
<time>2020-02-20T00:58:53Z</time></trkpt>
<trkpt lat="53.701001" lon="-2.718637">
<ele>25</ele>
<time>2020-02-20T00:58:58Z</time></trkpt>
<trkpt lat="53.701146" lon="-2.718049">
<ele>26</ele>
<time>2020-02-20T00:59:06Z</time></trkpt>
<trkpt lat="53.701387" lon="-2.717786">
<ele>26</ele>
<time>2020-02-20T00:59:12Z</time></trkpt>
<trkpt lat="53.702718" lon="-2.717175">
<ele>25</ele>
<time>2020-02-20T00:59:39Z</time></trkpt>
<trkpt lat="53.70786" lon="-2.716631">
<ele>25</ele>
<time>2020-02-20T01:01:23Z</time></trkpt>
<trkpt lat="53.713022" lon="-2.715845">
<ele>30</ele>
<time>2020-02-20T01:03:06Z</time></trkpt>
<trkpt lat="53.713469" lon="-2.715949">
<ele>31</ele>
<time>2020-02-20T01:03:15Z</time></trkpt>
<trkpt lat="53.71376" lon="-2.716161">
<ele>31</ele>
<time>2020-02-20T01:03:22Z</time></trkpt>
<trkpt lat="53.724581" lon="-2.715093">
<ele>30</ele>
<time>2020-02-20T01:06:59Z</time></trkpt>
<trkpt lat="53.725576" lon="-2.715204">
<ele>30</ele>
<time>2020-02-20T01:07:19Z</time></trkpt>
<trkpt lat="53.725578" lon="-2.713872">
<ele>30</ele>
<time>2020-02-20T01:07:35Z</time></trkpt>
<trkpt lat="53.73389" lon="-2.713225">
<ele>28</ele>
<time>2020-02-20T01:10:21Z</time></trkpt>
<trkpt lat="53.73387" lon="-2.712303">
<ele>29</ele>
<time>2020-02-20T01:10:32Z</time></trkpt>
<trkpt lat="53.734093" lon="-2.711292">
<ele>30</ele>
<time>2020-02-20T01:10:45Z</time></trkpt>
<trkpt lat="53.734901" lon="-2.708981">
<ele>31</ele>
<time>2020-02-20T01:11:17Z</time></trkpt>
<trkpt lat="53.735394" lon="-2.708443">
<ele>31</ele>
<time>2020-02-20T01:11:29Z</time></trkpt>
<trkpt lat="53.735625" lon="-2.707826">
<ele>32</ele>
<time>2020-02-20T01:11:37Z</time></trkpt>
<trkpt lat="53.737286" lon="-2.709122">
<ele>32</ele>
<time>2020-02-20T01:12:14Z</time></trkpt>
<trkpt lat="53.738637" lon="-2.709661">
<ele>34</ele>
<time>2020-02-20T01:12:42Z</time></trkpt>
<trkpt lat="53.739203" lon="-2.706931">
<ele>30</ele>
<time>2020-02-20T01:13:16Z</time></trkpt>
<trkpt lat="53.73968" lon="-2.707198">
<ele>28</ele>
<time>2020-02-20T01:13:26Z</time></trkpt>
<trkpt lat="53.740612" lon="-2.707154">
<ele>22</ele>
<time>2020-02-20T01:13:45Z</time></trkpt>
<trkpt lat="53.741759" lon="-2.708325">
<ele>15</ele>
<time>2020-02-20T01:14:12Z</time></trkpt>
<trkpt lat="53.742452" lon="-2.709597">
<ele>14</ele>
<time>2020-02-20T01:14:32Z</time></trkpt>
<trkpt lat="53.743744" lon="-2.710254">
<ele>10</ele>
<time>2020-02-20T01:14:59Z</time></trkpt>
<trkpt lat="53.744734" lon="-2.710688">
<ele>11</ele>
<time>2020-02-20T01:15:20Z</time></trkpt>
<trkpt lat="53.745885" lon="-2.713014">
<ele>10</ele>
<time>2020-02-20T01:15:56Z</time></trkpt>
<trkpt lat="53.748368" lon="-2.714579">
<ele>8</ele>
<time>2020-02-20T01:16:49Z</time></trkpt>
<trkpt lat="53.748397" lon="-2.714464">
<ele>8</ele>
<time>2020-02-20T01:16:50Z</time></trkpt>
<trkpt lat="53.749183" lon="-2.713685">
<ele>8</ele>
<time>2020-02-20T01:17:09Z</time></trkpt>
<trkpt lat="53.749178" lon="-2.713401">
<ele>9</ele>
<time>2020-02-20T01:17:12Z</time></trkpt>
<trkpt lat="53.749065" lon="-2.713126">
<ele>9</ele>
<time>2020-02-20T01:17:16Z</time></trkpt>
<trkpt lat="53.749988" lon="-2.712416">
<ele>10</ele>
<time>2020-02-20T01:17:36Z</time></trkpt>
<trkpt lat="53.750408" lon="-2.712645">
<ele>10</ele>
<time>2020-02-20T01:17:45Z</time></trkpt>
<trkpt lat="53.750833" lon="-2.712507">
<ele>9</ele>
<time>2020-02-20T01:17:54Z</time></trkpt>
<trkpt lat="53.751143" lon="-2.712603">
<ele>9</ele>
<time>2020-02-20T01:18:00Z</time></trkpt>
<trkpt lat="53.751409" lon="-2.71252">
<ele>9</ele>
<time>2020-02-20T01:18:05Z</time></trkpt>
<trkpt lat="53.751457" lon="-2.712204">
<ele>9</ele>
<time>2020-02-20T01:18:09Z</time></trkpt>
<trkpt lat="53.751825" lon="-2.71222">
<ele>9</ele>
<time>2020-02-20T01:18:17Z</time></trkpt>
<trkpt lat="53.751941" lon="-2.711947">
<ele>9</ele>
<time>2020-02-20T01:18:21Z</time></trkpt>
<trkpt lat="53.752104" lon="-2.712151">
<ele>9</ele>
<time>2020-02-20T01:18:25Z</time></trkpt>
<trkpt lat="53.752352" lon="-2.711744">
<ele>9</ele>
<time>2020-02-20T01:18:32Z</time></trkpt>
<trkpt lat="53.753069" lon="-2.71231">
<ele>9</ele>
<time>2020-02-20T01:18:48Z</time></trkpt>
<trkpt lat="53.753292" lon="-2.711912">
<ele>10</ele>
<time>2020-02-20T01:18:54Z</time></trkpt>
<trkpt lat="53.754546" lon="-2.713249">
<ele>11</ele>
<time>2020-02-20T01:19:24Z</time></trkpt>
<trkpt lat="53.754824" lon="-2.71277">
<ele>12</ele>
<time>2020-02-20T01:19:32Z</time></trkpt>
<trkpt lat="53.755102" lon="-2.713019">
<ele>13</ele>
<time>2020-02-20T01:19:38Z</time></trkpt>
<trkpt lat="53.754989" lon="-2.713319">
<ele>12</ele>
<time>2020-02-20T01:19:42Z</time></trkpt>
<trkpt lat="53.755863" lon="-2.714657">
<ele>10</ele>
<time>2020-02-20T01:20:06Z</time></trkpt>
<trkpt lat="53.756661" lon="-2.711832">
<ele>20</ele>
<time>2020-02-20T01:20:43Z</time></trkpt>
<trkpt lat="53.75608" lon="-2.711024">
<ele>21</ele>
<time>2020-02-20T01:20:58Z</time></trkpt>
<trkpt lat="53.754989" lon="-2.713319">
<ele>12</ele>
<time>2020-02-20T01:21:33Z</time></trkpt>
<trkpt lat="53.755863" lon="-2.714657">
<ele>10</ele>
<time>2020-02-20T01:21:57Z</time></trkpt>
<trkpt lat="53.755993" lon="-2.714166">
<ele>12</ele>
<time>2020-02-20T01:22:03Z</time></trkpt>
<trkpt lat="53.756206" lon="-2.714391">
<ele>11</ele>
<time>2020-02-20T01:22:08Z</time></trkpt>
<trkpt lat="53.757132" lon="-2.710943">
<ele>25</ele>
<time>2020-02-20T01:22:53Z</time></trkpt>
<trkpt lat="53.757746" lon="-2.711444">
<ele>22</ele>
<time>2020-02-20T01:23:06Z</time></trkpt>
<trkpt lat="53.759563" lon="-2.712294">
<ele>19</ele>
<time>2020-02-20T01:23:44Z</time></trkpt>
<trkpt lat="53.760452" lon="-2.707679">
<ele>29</ele>
<time>2020-02-20T01:24:42Z</time></trkpt>
<trkpt lat="53.760869" lon="-2.706331">
<ele>32</ele>
<time>2020-02-20T01:25:00Z</time></trkpt>
<trkpt lat="53.761202" lon="-2.706621">
<ele>32</ele>
<time>2020-02-20T01:25:07Z</time></trkpt>
<trkpt lat="53.761762" lon="-2.705628">
<ele>33</ele>
<time>2020-02-20T01:25:23Z</time></trkpt>
<trkpt lat="53.76209" lon="-2.705945">
<ele>32</ele>
<time>2020-02-20T01:25:31Z</time></trkpt>
<trkpt lat="53.762331" lon="-2.705723">
<ele>32</ele>
<time>2020-02-20T01:25:37Z</time></trkpt>
<trkpt lat="53.762391" lon="-2.703542">
<ele>36</ele>
<time>2020-02-20T01:26:02Z</time></trkpt>
<trkpt lat="53.763465" lon="-2.704021">
<ele>38</ele>
<time>2020-02-20T01:26:25Z</time></trkpt>
<trkpt lat="53.763856" lon="-2.704967">
<ele>37</ele>
<time>2020-02-20T01:26:38Z</time></trkpt>
<trkpt lat="53.764835" lon="-2.704581">
<ele>39</ele>
<time>2020-02-20T01:26:58Z</time></trkpt>
<trkpt lat="53.766554" lon="-2.704774">
<ele>36</ele>
<time>2020-02-20T01:27:33Z</time></trkpt>
<trkpt lat="53.768083" lon="-2.704713">
<ele>30</ele>
<time>2020-02-20T01:28:04Z</time></trkpt>
<trkpt lat="53.77155" lon="-2.705727">
<ele>39</ele>
<time>2020-02-20T01:29:14Z</time></trkpt>
<trkpt lat="53.772843" lon="-2.706334">
<ele>40</ele>
<time>2020-02-20T01:29:41Z</time></trkpt>
<trkpt lat="53.774994" lon="-2.707693">
<ele>33</ele>
<time>2020-02-20T01:30:27Z</time></trkpt>
<trkpt lat="53.776486" lon="-2.709115">
<ele>30</ele>
<time>2020-02-20T01:31:01Z</time></trkpt>
<trkpt lat="53.777611" lon="-2.70986">
<ele>33</ele>
<time>2020-02-20T01:31:26Z</time></trkpt>
<trkpt lat="53.791587" lon="-2.71363">
<ele>45</ele>
<time>2020-02-20T01:36:09Z</time></trkpt>
<trkpt lat="53.793218" lon="-2.714004">
<ele>44</ele>
<time>2020-02-20T01:36:42Z</time></trkpt>
<trkpt lat="53.796121" lon="-2.714198">
<ele>49</ele>
<time>2020-02-20T01:37:40Z</time></trkpt>
<trkpt lat="53.796719" lon="-2.714484">
<ele>48</ele>
<time>2020-02-20T01:37:53Z</time></trkpt>
<trkpt lat="53.797985" lon="-2.715477">
<ele>49</ele>
<time>2020-02-20T01:38:21Z</time></trkpt>
<trkpt lat="53.800233" lon="-2.716602">
<ele>44</ele>
<time>2020-02-20T01:39:08Z</time></trkpt>
<trkpt lat="53.800351" lon="-2.716751">
<ele>44</ele>
<time>2020-02-20T01:39:11Z</time></trkpt>
<trkpt lat="53.800485" lon="-2.71716">
<ele>43</ele>
<time>2020-02-20T01:39:16Z</time></trkpt>
<trkpt lat="53.800955" lon="-2.717401">
<ele>42</ele>
<time>2020-02-20T01:39:26Z</time></trkpt>
<trkpt lat="53.801764" lon="-2.717136">
<ele>41</ele>
<time>2020-02-20T01:39:43Z</time></trkpt>
<trkpt lat="53.802119" lon="-2.717005">
<ele>41</ele>
<time>2020-02-20T01:39:50Z</time></trkpt>
<trkpt lat="53.80257" lon="-2.716649">
<ele>40</ele>
<time>2020-02-20T01:40:00Z</time></trkpt>
<trkpt lat="53.803464" lon="-2.714961">
<ele>37</ele>
<time>2020-02-20T01:40:27Z</time></trkpt>
<trkpt lat="53.803655" lon="-2.71474">
<ele>37</ele>
<time>2020-02-20T01:40:31Z</time></trkpt>
<trkpt lat="53.804625" lon="-2.713985">
<ele>36</ele>
<time>2020-02-20T01:40:53Z</time></trkpt>
<trkpt lat="53.805489" lon="-2.713648">
<ele>37</ele>
<time>2020-02-20T01:41:10Z</time></trkpt>
<trkpt lat="53.806225" lon="-2.713646">
<ele>41</ele>
<time>2020-02-20T01:41:25Z</time></trkpt>
<trkpt lat="53.807971" lon="-2.71461">
<ele>48</ele>
<time>2020-02-20T01:42:02Z</time></trkpt>
<trkpt lat="53.809257" lon="-2.715716">
<ele>47</ele>
<time>2020-02-20T01:42:31Z</time></trkpt>
<trkpt lat="53.810838" lon="-2.717577">
<ele>45</ele>
<time>2020-02-20T01:43:09Z</time></trkpt>
<trkpt lat="53.810936" lon="-2.718027">
<ele>45</ele>
<time>2020-02-20T01:43:15Z</time></trkpt>
<trkpt lat="53.810962" lon="-2.718369">
<ele>45</ele>
<time>2020-02-20T01:43:19Z</time></trkpt>
<trkpt lat="53.81114" lon="-2.718519">
<ele>44</ele>
<time>2020-02-20T01:43:23Z</time></trkpt>
<trkpt lat="53.811338" lon="-2.718274">
<ele>44</ele>
<time>2020-02-20T01:43:28Z</time></trkpt>
<trkpt lat="53.811309" lon="-2.717944">
<ele>44</ele>
<time>2020-02-20T01:43:32Z</time></trkpt>
<trkpt lat="53.812122" lon="-2.716613">
<ele>45</ele>
<time>2020-02-20T01:43:55Z</time></trkpt>
<trkpt lat="53.816137" lon="-2.704466">
<ele>52</ele>
<time>2020-02-20T01:46:39Z</time></trkpt>
<trkpt lat="53.816233" lon="-2.704377">
<ele>52</ele>
<time>2020-02-20T01:46:42Z</time></trkpt>
<trkpt lat="53.822322" lon="-2.701927">
<ele>49</ele>
<time>2020-02-20T01:48:47Z</time></trkpt>
<trkpt lat="53.82592" lon="-2.701617">
<ele>53</ele>
<time>2020-02-20T01:49:59Z</time></trkpt>
<trkpt lat="53.827485" lon="-2.701535">
<ele>54</ele>
<time>2020-02-20T01:50:31Z</time></trkpt>
<trkpt lat="53.830281" lon="-2.701961">
<ele>56</ele>
<time>2020-02-20T01:51:27Z</time></trkpt>
<trkpt lat="53.832934" lon="-2.702111">
<ele>55</ele>
<time>2020-02-20T01:52:20Z</time></trkpt>
<trkpt lat="53.834421" lon="-2.70267">
<ele>52</ele>
<time>2020-02-20T01:52:51Z</time></trkpt>
<trkpt lat="53.835785" lon="-2.702309">
<ele>46</ele>
<time>2020-02-20T01:53:18Z</time></trkpt>
<trkpt lat="53.836744" lon="-2.702548">
<ele>53</ele>
<time>2020-02-20T01:53:38Z</time></trkpt>
<trkpt lat="53.837281" lon="-2.702441">
<ele>56</ele>
<time>2020-02-20T01:53:48Z</time></trkpt>
<trkpt lat="53.837858" lon="-2.702574">
<ele>57</ele>
<time>2020-02-20T01:54:00Z</time></trkpt>
<trkpt lat="53.839138" lon="-2.698883">
<ele>59</ele>
<time>2020-02-20T01:54:51Z</time></trkpt>
<trkpt lat="53.839367" lon="-2.69701">
<ele>62</ele>
<time>2020-02-20T01:55:13Z</time></trkpt>
<trkpt lat="53.840539" lon="-2.691049">
<ele>64</ele>
<time>2020-02-20T01:56:28Z</time></trkpt>
<trkpt lat="53.842111" lon="-2.686555">
<ele>72</ele>
<time>2020-02-20T01:57:29Z</time></trkpt>
<trkpt lat="53.842294" lon="-2.68634">
<ele>72</ele>
<time>2020-02-20T01:57:34Z</time></trkpt>
<trkpt lat="53.842782" lon="-2.686266">
<ele>72</ele>
<time>2020-02-20T01:57:44Z</time></trkpt>
<trkpt lat="53.843523" lon="-2.685484">
<ele>72</ele>
<time>2020-02-20T01:58:01Z</time></trkpt>
<trkpt lat="53.844107" lon="-2.685447">
<ele>73</ele>
<time>2020-02-20T01:58:13Z</time></trkpt>
<trkpt lat="53.845297" lon="-2.684124">
<ele>74</ele>
<time>2020-02-20T01:58:41Z</time></trkpt>
<trkpt lat="53.846312" lon="-2.686576">
<ele>72</ele>
<time>2020-02-20T01:59:17Z</time></trkpt>
<trkpt lat="53.846591" lon="-2.68812">
<ele>69</ele>
<time>2020-02-20T01:59:36Z</time></trkpt>
<trkpt lat="53.847013" lon="-2.689236">
<ele>67</ele>
<time>2020-02-20T01:59:52Z</time></trkpt>
<trkpt lat="53.847576" lon="-2.689381">
<ele>68</ele>
<time>2020-02-20T02:00:03Z</time></trkpt>
<trkpt lat="53.848614" lon="-2.690389">
<ele>72</ele>
<time>2020-02-20T02:00:27Z</time></trkpt>
<trkpt lat="53.850748" lon="-2.689269">
<ele>78</ele>
<time>2020-02-20T02:01:12Z</time></trkpt>
<trkpt lat="53.852507" lon="-2.689472">
<ele>81</ele>
<time>2020-02-20T02:01:47Z</time></trkpt>
<trkpt lat="53.853597" lon="-2.690314">
<ele>81</ele>
<time>2020-02-20T02:02:11Z</time></trkpt>
<trkpt lat="53.853786" lon="-2.690656">
<ele>81</ele>
<time>2020-02-20T02:02:17Z</time></trkpt>
<trkpt lat="53.853931" lon="-2.691123">
<ele>82</ele>
<time>2020-02-20T02:02:23Z</time></trkpt>
<trkpt lat="53.853684" lon="-2.693144">
<ele>78</ele>
<time>2020-02-20T02:02:47Z</time></trkpt>
<trkpt lat="53.852546" lon="-2.69837">
<ele>73</ele>
<time>2020-02-20T02:03:53Z</time></trkpt>
<trkpt lat="53.853468" lon="-2.699424">
<ele>76</ele>
<time>2020-02-20T02:04:15Z</time></trkpt>
<trkpt lat="53.854225" lon="-2.700696">
<ele>77</ele>
<time>2020-02-20T02:04:37Z</time></trkpt>
<trkpt lat="53.855803" lon="-2.701781">
<ele>82</ele>
<time>2020-02-20T02:05:11Z</time></trkpt>
<trkpt lat="53.856688" lon="-2.703351">
<ele>80</ele>
<time>2020-02-20T02:05:36Z</time></trkpt>
<trkpt lat="53.856834" lon="-2.704528">
<ele>80</ele>
<time>2020-02-20T02:05:51Z</time></trkpt>
<trkpt lat="53.856734" lon="-2.70677">
<ele>82</ele>
<time>2020-02-20T02:06:17Z</time></trkpt>
<trkpt lat="53.857936" lon="-2.708851">
<ele>70</ele>
<time>2020-02-20T02:06:52Z</time></trkpt>
<trkpt lat="53.858424" lon="-2.710127">
<ele>62</ele>
<time>2020-02-20T02:07:10Z</time></trkpt>
<trkpt lat="53.858043" lon="-2.711797">
<ele>58</ele>
<time>2020-02-20T02:07:31Z</time></trkpt>
<trkpt lat="53.857419" lon="-2.713575">
<ele>57</ele>
<time>2020-02-20T02:07:55Z</time></trkpt>
<trkpt lat="53.858784" lon="-2.716275">
<ele>46</ele>
<time>2020-02-20T02:08:37Z</time></trkpt>
<trkpt lat="53.859835" lon="-2.719301">
<ele>39</ele>
<time>2020-02-20T02:09:19Z</time></trkpt>
<trkpt lat="53.860252" lon="-2.720052">
<ele>40</ele>
<time>2020-02-20T02:09:31Z</time></trkpt>
<trkpt lat="53.861618" lon="-2.725516">
<ele>37</ele>
<time>2020-02-20T02:10:41Z</time></trkpt>
<trkpt lat="53.862434" lon="-2.726364">
<ele>37</ele>
<time>2020-02-20T02:11:00Z</time></trkpt>
<trkpt lat="53.862834" lon="-2.727047">
<ele>37</ele>
<time>2020-02-20T02:11:12Z</time></trkpt>
<trkpt lat="53.86377" lon="-2.729579">
<ele>35</ele>
<time>2020-02-20T02:11:47Z</time></trkpt>
<trkpt lat="53.864061" lon="-2.730802">
<ele>35</ele>
<time>2020-02-20T02:12:03Z</time></trkpt>
<trkpt lat="53.864659" lon="-2.732039">
<ele>36</ele>
<time>2020-02-20T02:12:21Z</time></trkpt>
<trkpt lat="53.864971" lon="-2.732522">
<ele>36</ele>
<time>2020-02-20T02:12:30Z</time></trkpt>
<trkpt lat="53.865344" lon="-2.732769">
<ele>36</ele>
<time>2020-02-20T02:12:38Z</time></trkpt>
<trkpt lat="53.865876" lon="-2.73293">
<ele>35</ele>
<time>2020-02-20T02:12:49Z</time></trkpt>
<trkpt lat="53.866287" lon="-2.732866">
<ele>35</ele>
<time>2020-02-20T02:12:57Z</time></trkpt>
<trkpt lat="53.866832" lon="-2.734772">
<ele>37</ele>
<time>2020-02-20T02:13:22Z</time></trkpt>
<trkpt lat="53.866845" lon="-2.736467">
<ele>34</ele>
<time>2020-02-20T02:13:42Z</time></trkpt>
<trkpt lat="53.86706" lon="-2.737368">
<ele>33</ele>
<time>2020-02-20T02:13:54Z</time></trkpt>
<trkpt lat="53.869932" lon="-2.742389">
<ele>31</ele>
<time>2020-02-20T02:15:16Z</time></trkpt>
<trkpt lat="53.869578" lon="-2.744642">
<ele>28</ele>
<time>2020-02-20T02:15:44Z</time></trkpt>
<trkpt lat="53.868199" lon="-2.750498">
<ele>23</ele>
<time>2020-02-20T02:16:58Z</time></trkpt>
<trkpt lat="53.868243" lon="-2.750824">
<ele>23</ele>
<time>2020-02-20T02:17:02Z</time></trkpt>
<trkpt lat="53.86955" lon="-2.752067">
<ele>19</ele>
<time>2020-02-20T02:17:32Z</time></trkpt>
<trkpt lat="53.870295" lon="-2.753254">
<ele>19</ele>
<time>2020-02-20T02:17:53Z</time></trkpt>
<trkpt lat="53.870899" lon="-2.756285">
<ele>21</ele>
<time>2020-02-20T02:18:31Z</time></trkpt>
<trkpt lat="53.87143" lon="-2.757632">
<ele>20</ele>
<time>2020-02-20T02:18:50Z</time></trkpt>
<trkpt lat="53.873081" lon="-2.758357">
<ele>20</ele>
<time>2020-02-20T02:19:24Z</time></trkpt>
<trkpt lat="53.875251" lon="-2.759787">
<ele>20</ele>
<time>2020-02-20T02:20:11Z</time></trkpt>
<trkpt lat="53.876099" lon="-2.760005">
<ele>21</ele>
<time>2020-02-20T02:20:28Z</time></trkpt>
<trkpt lat="53.876944" lon="-2.760453">
<ele>21</ele>
<time>2020-02-20T02:20:45Z</time></trkpt>
<trkpt lat="53.878238" lon="-2.761865">
<ele>21</ele>
<time>2020-02-20T02:21:16Z</time></trkpt>
<trkpt lat="53.880558" lon="-2.763686">
<ele>21</ele>
<time>2020-02-20T02:22:07Z</time></trkpt>
<trkpt lat="53.882158" lon="-2.764327">
<ele>17</ele>
<time>2020-02-20T02:22:40Z</time></trkpt>
<trkpt lat="53.883186" lon="-2.763606">
<ele>17</ele>
<time>2020-02-20T02:23:03Z</time></trkpt>
<trkpt lat="53.883702" lon="-2.763439">
<ele>18</ele>
<time>2020-02-20T02:23:13Z</time></trkpt>
<trkpt lat="53.884309" lon="-2.763615">
<ele>17</ele>
<time>2020-02-20T02:23:26Z</time></trkpt>
<trkpt lat="53.885673" lon="-2.764372">
<ele>17</ele>
<time>2020-02-20T02:23:54Z</time></trkpt>
<trkpt lat="53.886513" lon="-2.764887">
<ele>19</ele>
<time>2020-02-20T02:24:12Z</time></trkpt>
<trkpt lat="53.887442" lon="-2.766014">
<ele>23</ele>
<time>2020-02-20T02:24:35Z</time></trkpt>
<trkpt lat="53.891021" lon="-2.768997">
<ele>38</ele>
<time>2020-02-20T02:25:55Z</time></trkpt>
<trkpt lat="53.891438" lon="-2.76905">
<ele>36</ele>
<time>2020-02-20T02:26:03Z</time></trkpt>
<trkpt lat="53.892209" lon="-2.76787">
<ele>32</ele>
<time>2020-02-20T02:26:24Z</time></trkpt>
<trkpt lat="53.89391" lon="-2.76861">
<ele>25</ele>
<time>2020-02-20T02:26:59Z</time></trkpt>
<trkpt lat="53.895567" lon="-2.770736">
<ele>22</ele>
<time>2020-02-20T02:27:41Z</time></trkpt>
<trkpt lat="53.896801" lon="-2.771255">
<ele>21</ele>
<time>2020-02-20T02:28:06Z</time></trkpt>
<trkpt lat="53.897777" lon="-2.771954">
<ele>19</ele>
<time>2020-02-20T02:28:28Z</time></trkpt>
<trkpt lat="53.898498" lon="-2.773489">
<ele>18</ele>
<time>2020-02-20T02:28:51Z</time></trkpt>
<trkpt lat="53.898662" lon="-2.774272">
<ele>19</ele>
<time>2020-02-20T02:29:01Z</time></trkpt>
<trkpt lat="53.900058" lon="-2.776031">
<ele>22</ele>
<time>2020-02-20T02:29:36Z</time></trkpt>
<trkpt lat="53.901558" lon="-2.775001">
<ele>22</ele>
<time>2020-02-20T02:30:08Z</time></trkpt>
<trkpt lat="53.902406" lon="-2.775159">
<ele>22</ele>
<time>2020-02-20T02:30:25Z</time></trkpt>
<trkpt lat="53.903921" lon="-2.777271">
<ele>23</ele>
<time>2020-02-20T02:31:04Z</time></trkpt>
<trkpt lat="53.90547" lon="-2.778325">
<ele>24</ele>
<time>2020-02-20T02:31:38Z</time></trkpt>
<trkpt lat="53.908261" lon="-2.781201">
<ele>23</ele>
<time>2020-02-20T02:32:43Z</time></trkpt>
<trkpt lat="53.912595" lon="-2.788029">
<ele>30</ele>
<time>2020-02-20T02:34:42Z</time></trkpt>
<trkpt lat="53.91549" lon="-2.790345">
<ele>30</ele>
<time>2020-02-20T02:35:46Z</time></trkpt>
<trkpt lat="53.91702" lon="-2.790921">
<ele>26</ele>
<time>2020-02-20T02:36:17Z</time></trkpt>
<trkpt lat="53.917854" lon="-2.790997">
<ele>24</ele>
<time>2020-02-20T02:36:34Z</time></trkpt>
<trkpt lat="53.919269" lon="-2.791444">
<ele>22</ele>
<time>2020-02-20T02:37:03Z</time></trkpt>
<trkpt lat="53.921996" lon="-2.790282">
<ele>19</ele>
<time>2020-02-20T02:37:59Z</time></trkpt>
<trkpt lat="53.922702" lon="-2.790282">
<ele>20</ele>
<time>2020-02-20T02:38:13Z</time></trkpt>
<trkpt lat="53.926144" lon="-2.792341">
<ele>23</ele>
<time>2020-02-20T02:39:26Z</time></trkpt>
<trkpt lat="53.927694" lon="-2.79269">
<ele>20</ele>
<time>2020-02-20T02:39:58Z</time></trkpt>
<trkpt lat="53.929351" lon="-2.792834">
<ele>18</ele>
<time>2020-02-20T02:40:31Z</time></trkpt>
<trkpt lat="53.930962" lon="-2.794151">
<ele>19</ele>
<time>2020-02-20T02:41:07Z</time></trkpt>
<trkpt lat="53.933302" lon="-2.794374">
<ele>18</ele>
<time>2020-02-20T02:41:54Z</time></trkpt>
<trkpt lat="53.933807" lon="-2.794593">
<ele>18</ele>
<time>2020-02-20T02:42:04Z</time></trkpt>
<trkpt lat="53.935082" lon="-2.795331">
<ele>19</ele>
<time>2020-02-20T02:42:31Z</time></trkpt>
<trkpt lat="53.936623" lon="-2.796919">
<ele>13</ele>
<time>2020-02-20T02:43:07Z</time></trkpt>
<trkpt lat="53.938468" lon="-2.797648">
<ele>11</ele>
<time>2020-02-20T02:43:45Z</time></trkpt>
<trkpt lat="53.941082" lon="-2.797884">
<ele>12</ele>
<time>2020-02-20T02:44:38Z</time></trkpt>
<trkpt lat="53.942067" lon="-2.797798">
<ele>12</ele>
<time>2020-02-20T02:44:57Z</time></trkpt>
<trkpt lat="53.942573" lon="-2.797584">
<ele>12</ele>
<time>2020-02-20T02:45:08Z</time></trkpt>
<trkpt lat="53.943634" lon="-2.796404">
<ele>13</ele>
<time>2020-02-20T02:45:33Z</time></trkpt>
<trkpt lat="53.94463" lon="-2.796266">
<ele>14</ele>
<time>2020-02-20T02:45:53Z</time></trkpt>
<trkpt lat="53.94525" lon="-2.795857">
<ele>17</ele>
<time>2020-02-20T02:46:07Z</time></trkpt>
<trkpt lat="53.94633" lon="-2.795916">
<ele>17</ele>
<time>2020-02-20T02:46:28Z</time></trkpt>
<trkpt lat="53.946968" lon="-2.79644">
<ele>17</ele>
<time>2020-02-20T02:46:43Z</time></trkpt>
<trkpt lat="53.947126" lon="-2.797004">
<ele>16</ele>
<time>2020-02-20T02:46:50Z</time></trkpt>
<trkpt lat="53.94821" lon="-2.803614">
<ele>9</ele>
<time>2020-02-20T02:48:11Z</time></trkpt>
<trkpt lat="53.949952" lon="-2.807101">
<ele>13</ele>
<time>2020-02-20T02:49:05Z</time></trkpt>
<trkpt lat="53.951853" lon="-2.809117">
<ele>18</ele>
<time>2020-02-20T02:49:50Z</time></trkpt>
<trkpt lat="53.954347" lon="-2.810673">
<ele>14</ele>
<time>2020-02-20T02:50:43Z</time></trkpt>
<trkpt lat="53.955159" lon="-2.811502">
<ele>14</ele>
<time>2020-02-20T02:51:02Z</time></trkpt>
<trkpt lat="53.955968" lon="-2.811592">
<ele>15</ele>
<time>2020-02-20T02:51:18Z</time></trkpt>
<trkpt lat="53.957258" lon="-2.812037">
<ele>15</ele>
<time>2020-02-20T02:51:44Z</time></trkpt>
<trkpt lat="53.957911" lon="-2.812031">
<ele>17</ele>
<time>2020-02-20T02:51:58Z</time></trkpt>
<trkpt lat="53.959415" lon="-2.812858">
<ele>23</ele>
<time>2020-02-20T02:52:29Z</time></trkpt>
<trkpt lat="53.961056" lon="-2.81511">
<ele>22</ele>
<time>2020-02-20T02:53:12Z</time></trkpt>
<trkpt lat="53.962074" lon="-2.816094">
<ele>19</ele>
<time>2020-02-20T02:53:35Z</time></trkpt>
<trkpt lat="53.963271" lon="-2.816748">
<ele>19</ele>
<time>2020-02-20T02:54:00Z</time></trkpt>
<trkpt lat="53.963419" lon="-2.817098">
<ele>20</ele>
<time>2020-02-20T02:54:05Z</time></trkpt>
<trkpt lat="53.964092" lon="-2.816752">
<ele>22</ele>
<time>2020-02-20T02:54:19Z</time></trkpt>
<trkpt lat="53.965208" lon="-2.817254">
<ele>23</ele>
<time>2020-02-20T02:54:42Z</time></trkpt>
<trkpt lat="53.96582" lon="-2.817099">
<ele>23</ele>
<time>2020-02-20T02:54:55Z</time></trkpt>
<trkpt lat="53.967417" lon="-2.818216">
<ele>19</ele>
<time>2020-02-20T02:55:29Z</time></trkpt>
<trkpt lat="53.9684" lon="-2.818608">
<ele>16</ele>
<time>2020-02-20T02:55:50Z</time></trkpt>
<trkpt lat="53.971739" lon="-2.819329">
<ele>15</ele>
<time>2020-02-20T02:56:57Z</time></trkpt>
<trkpt lat="53.972458" lon="-2.820505">
<ele>18</ele>
<time>2020-02-20T02:57:17Z</time></trkpt>
<trkpt lat="53.973419" lon="-2.820803">
<ele>17</ele>
<time>2020-02-20T02:57:37Z</time></trkpt>
<trkpt lat="53.974536" lon="-2.820353">
<ele>12</ele>
<time>2020-02-20T02:58:00Z</time></trkpt>
<trkpt lat="53.976901" lon="-2.82178">
<ele>17</ele>
<time>2020-02-20T02:58:50Z</time></trkpt>
<trkpt lat="53.978395" lon="-2.822358">
<ele>17</ele>
<time>2020-02-20T02:59:21Z</time></trkpt>
<trkpt lat="53.979027" lon="-2.822849">
<ele>15</ele>
<time>2020-02-20T02:59:35Z</time></trkpt>
<trkpt lat="53.981026" lon="-2.823201">
<ele>10</ele>
<time>2020-02-20T03:00:15Z</time></trkpt>
<trkpt lat="53.982074" lon="-2.8237">
<ele>12</ele>
<time>2020-02-20T03:00:37Z</time></trkpt>
<trkpt lat="53.982693" lon="-2.823586">
<ele>15</ele>
<time>2020-02-20T03:00:49Z</time></trkpt>
<trkpt lat="53.984008" lon="-2.824466">
<ele>18</ele>
<time>2020-02-20T03:01:17Z</time></trkpt>
<trkpt lat="53.985533" lon="-2.824314">
<ele>17</ele>
<time>2020-02-20T03:01:48Z</time></trkpt>
<trkpt lat="53.986594" lon="-2.824774">
<ele>16</ele>
<time>2020-02-20T03:02:10Z</time></trkpt>
<trkpt lat="53.987421" lon="-2.824873">
<ele>17</ele>
<time>2020-02-20T03:02:27Z</time></trkpt>
<trkpt lat="53.987793" lon="-2.825226">
<ele>15</ele>
<time>2020-02-20T03:02:35Z</time></trkpt>
<trkpt lat="53.988285" lon="-2.826217">
<ele>11</ele>
<time>2020-02-20T03:02:50Z</time></trkpt>
<trkpt lat="53.989404" lon="-2.826881">
<ele>8</ele>
<time>2020-02-20T03:03:14Z</time></trkpt>
<trkpt lat="53.991519" lon="-2.827694">
<ele>7</ele>
<time>2020-02-20T03:03:58Z</time></trkpt>
<trkpt lat="53.992203" lon="-2.82761">
<ele>7</ele>
<time>2020-02-20T03:04:11Z</time></trkpt>
<trkpt lat="53.994994" lon="-2.825667">
<ele>5</ele>
<time>2020-02-20T03:05:12Z</time></trkpt>
<trkpt lat="53.995227" lon="-2.825632">
<ele>5</ele>
<time>2020-02-20T03:05:17Z</time></trkpt>
<trkpt lat="53.996916" lon="-2.825763">
<ele>9</ele>
<time>2020-02-20T03:05:50Z</time></trkpt>
<trkpt lat="53.99711" lon="-2.825574">
<ele>10</ele>
<time>2020-02-20T03:05:55Z</time></trkpt>
<trkpt lat="53.997523" lon="-2.824723">
<ele>12</ele>
<time>2020-02-20T03:06:08Z</time></trkpt>
<trkpt lat="53.997987" lon="-2.824285">
<ele>12</ele>
<time>2020-02-20T03:06:18Z</time></trkpt>
<trkpt lat="53.999554" lon="-2.823606">
<ele>12</ele>
<time>2020-02-20T03:06:51Z</time></trkpt>
<trkpt lat="54.000644" lon="-2.823512">
<ele>12</ele>
<time>2020-02-20T03:07:13Z</time></trkpt>
<trkpt lat="54.001757" lon="-2.82196">
<ele>15</ele>
<time>2020-02-20T03:07:42Z</time></trkpt>
<trkpt lat="54.002167" lon="-2.821899">
<ele>14</ele>
<time>2020-02-20T03:07:50Z</time></trkpt>
<trkpt lat="54.003304" lon="-2.822174">
<ele>14</ele>
<time>2020-02-20T03:08:13Z</time></trkpt>
<trkpt lat="54.004355" lon="-2.82198">
<ele>15</ele>
<time>2020-02-20T03:08:34Z</time></trkpt>
<trkpt lat="54.006509" lon="-2.820595">
<ele>19</ele>
<time>2020-02-20T03:09:20Z</time></trkpt>
<trkpt lat="54.007383" lon="-2.819591">
<ele>20</ele>
<time>2020-02-20T03:09:41Z</time></trkpt>
<trkpt lat="54.009035" lon="-2.818755">
<ele>21</ele>
<time>2020-02-20T03:10:16Z</time></trkpt>
<trkpt lat="54.009767" lon="-2.817879">
<ele>20</ele>
<time>2020-02-20T03:10:34Z</time></trkpt>
<trkpt lat="54.010328" lon="-2.817651">
<ele>19</ele>
<time>2020-02-20T03:10:45Z</time></trkpt>
<trkpt lat="54.010991" lon="-2.816974">
<ele>18</ele>
<time>2020-02-20T03:11:01Z</time></trkpt>
<trkpt lat="54.011841" lon="-2.816524">
<ele>21</ele>
<time>2020-02-20T03:11:19Z</time></trkpt>
<trkpt lat="54.013171" lon="-2.814345">
<ele>19</ele>
<time>2020-02-20T03:11:56Z</time></trkpt>
<trkpt lat="54.014034" lon="-2.813408">
<ele>21</ele>
<time>2020-02-20T03:12:16Z</time></trkpt>
<trkpt lat="54.014689" lon="-2.812972">
<ele>22</ele>
<time>2020-02-20T03:12:30Z</time></trkpt>
<trkpt lat="54.015923" lon="-2.812416">
<ele>22</ele>
<time>2020-02-20T03:12:56Z</time></trkpt>
<trkpt lat="54.016834" lon="-2.811717">
<ele>24</ele>
<time>2020-02-20T03:13:16Z</time></trkpt>
<trkpt lat="54.018441" lon="-2.810916">
<ele>35</ele>
<time>2020-02-20T03:13:49Z</time></trkpt>
<trkpt lat="54.019463" lon="-2.810669">
<ele>38</ele>
<time>2020-02-20T03:14:10Z</time></trkpt>
<trkpt lat="54.020589" lon="-2.809914">
<ele>35</ele>
<time>2020-02-20T03:14:34Z</time></trkpt>
<trkpt lat="54.023298" lon="-2.809584">
<ele>37</ele>
<time>2020-02-20T03:15:29Z</time></trkpt>
<trkpt lat="54.024463" lon="-2.808272">
<ele>33</ele>
<time>2020-02-20T03:15:57Z</time></trkpt>
<trkpt lat="54.025821" lon="-2.807095">
<ele>30</ele>
<time>2020-02-20T03:16:27Z</time></trkpt>
<trkpt lat="54.029313" lon="-2.804924">
<ele>38</ele>
<time>2020-02-20T03:17:42Z</time></trkpt>
<trkpt lat="54.029625" lon="-2.804615">
<ele>39</ele>
<time>2020-02-20T03:17:49Z</time></trkpt>
<trkpt lat="54.032021" lon="-2.802953">
<ele>41</ele>
<time>2020-02-20T03:18:41Z</time></trkpt>
<trkpt lat="54.03377" lon="-2.802362">
<ele>42</ele>
<time>2020-02-20T03:19:17Z</time></trkpt>
<trkpt lat="54.035337" lon="-2.802251">
<ele>39</ele>
<time>2020-02-20T03:19:48Z</time></trkpt>
<trkpt lat="54.036567" lon="-2.801554">
<ele>35</ele>
<time>2020-02-20T03:20:14Z</time></trkpt>
<trkpt lat="54.037951" lon="-2.801358">
<ele>34</ele>
<time>2020-02-20T03:20:42Z</time></trkpt>
<trkpt lat="54.040403" lon="-2.799437">
<ele>35</ele>
<time>2020-02-20T03:21:36Z</time></trkpt>
<trkpt lat="54.040873" lon="-2.79882">
<ele>35</ele>
<time>2020-02-20T03:21:48Z</time></trkpt>
<trkpt lat="54.041111" lon="-2.799006">
<ele>36</ele>
<time>2020-02-20T03:21:53Z</time></trkpt>
<trkpt lat="54.042327" lon="-2.798452">
<ele>36</ele>
<time>2020-02-20T03:22:18Z</time></trkpt>
<trkpt lat="54.042804" lon="-2.798398">
<ele>36</ele>
<time>2020-02-20T03:22:28Z</time></trkpt>
<trkpt lat="54.044205" lon="-2.799003">
<ele>31</ele>
<time>2020-02-20T03:22:57Z</time></trkpt>
<trkpt lat="54.044595" lon="-2.799076">
<ele>30</ele>
<time>2020-02-20T03:23:05Z</time></trkpt>
<trkpt lat="54.047961" lon="-2.802333">
<ele>21</ele>
<time>2020-02-20T03:24:22Z</time></trkpt>
<trkpt lat="54.048392" lon="-2.802988">
<ele>22</ele>
<time>2020-02-20T03:24:34Z</time></trkpt>
<trkpt lat="54.048816" lon="-2.80324">
<ele>23</ele>
<time>2020-02-20T03:24:43Z</time></trkpt>
<trkpt lat="54.050341" lon="-2.803053">
<ele>21</ele>
<time>2020-02-20T03:25:13Z</time></trkpt>
<trkpt lat="54.050704" lon="-2.802458">
<ele>15</ele>
<time>2020-02-20T03:25:24Z</time></trkpt>
<trkpt lat="54.050926" lon="-2.802218">
<ele>12</ele>
<time>2020-02-20T03:25:29Z</time></trkpt>
<trkpt lat="54.051665" lon="-2.802657">
<ele>11</ele>
<time>2020-02-20T03:25:44Z</time></trkpt>
<trkpt lat="54.05195" lon="-2.803135">
<ele>12</ele>
<time>2020-02-20T03:25:53Z</time></trkpt>
<trkpt lat="54.052118" lon="-2.803046">
<ele>10</ele>
<time>2020-02-20T03:25:56Z</time></trkpt>
<trkpt lat="54.052196" lon="-2.802491">
<ele>6</ele>
<time>2020-02-20T03:26:03Z</time></trkpt>
<trkpt lat="54.052937" lon="-2.802295">
<ele>5</ele>
<time>2020-02-20T03:26:18Z</time></trkpt>
<trkpt lat="54.05321" lon="-2.801748">
<ele>7</ele>
<time>2020-02-20T03:26:26Z</time></trkpt>
<trkpt lat="54.054717" lon="-2.798755">
<ele>11</ele>
<time>2020-02-20T03:27:13Z</time></trkpt>
<trkpt lat="54.054787" lon="-2.798828">
<ele>11</ele>
<time>2020-02-20T03:27:14Z</time></trkpt>
<trkpt lat="54.055028" lon="-2.798485">
<ele>11</ele>
<time>2020-02-20T03:27:21Z</time></trkpt>
<trkpt lat="54.05535" lon="-2.799106">
<ele>11</ele>
<time>2020-02-20T03:27:30Z</time></trkpt>
<trkpt lat="54.055738" lon="-2.799017">
<ele>11</ele>
<time>2020-02-20T03:27:38Z</time></trkpt>
<trkpt lat="54.055855" lon="-2.799407">
<ele>10</ele>
<time>2020-02-20T03:27:43Z</time></trkpt>
<trkpt lat="54.05588" lon="-2.799393">
<ele>10</ele>
<time>2020-02-20T03:27:44Z</time></trkpt>
<trkpt lat="54.056154" lon="-2.799519">
<ele>11</ele>
<time>2020-02-20T03:27:49Z</time></trkpt>
<trkpt lat="54.057219" lon="-2.800705">
<ele>12</ele>
<time>2020-02-20T03:28:15Z</time></trkpt>
<trkpt lat="54.05815" lon="-2.801056">
<ele>12</ele>
<time>2020-02-20T03:28:34Z</time></trkpt>
<trkpt lat="54.061152" lon="-2.801232">
<ele>21</ele>
<time>2020-02-20T03:29:34Z</time></trkpt>
<trkpt lat="54.06319" lon="-2.800936">
<ele>21</ele>
<time>2020-02-20T03:30:15Z</time></trkpt>
<trkpt lat="54.064529" lon="-2.801218">
<ele>22</ele>
<time>2020-02-20T03:30:42Z</time></trkpt>
<trkpt lat="54.066069" lon="-2.801159">
<ele>23</ele>
<time>2020-02-20T03:31:13Z</time></trkpt>
<trkpt lat="54.067057" lon="-2.801449">
<ele>25</ele>
<time>2020-02-20T03:31:33Z</time></trkpt>
<trkpt lat="54.06783" lon="-2.801476">
<ele>26</ele>
<time>2020-02-20T03:31:49Z</time></trkpt>
<trkpt lat="54.069127" lon="-2.801406">
<ele>26</ele>
<time>2020-02-20T03:32:15Z</time></trkpt>
<trkpt lat="54.070611" lon="-2.800694">
<ele>31</ele>
<time>2020-02-20T03:32:46Z</time></trkpt>
<trkpt lat="54.07118" lon="-2.800612">
<ele>32</ele>
<time>2020-02-20T03:32:57Z</time></trkpt>
<trkpt lat="54.071844" lon="-2.800831">
<ele>29</ele>
<time>2020-02-20T03:33:11Z</time></trkpt>
<trkpt lat="54.073178" lon="-2.801666">
<ele>27</ele>
<time>2020-02-20T03:33:39Z</time></trkpt>
<trkpt lat="54.07383" lon="-2.801785">
<ele>27</ele>
<time>2020-02-20T03:33:52Z</time></trkpt>
<trkpt lat="54.07499" lon="-2.801685">
<ele>31</ele>
<time>2020-02-20T03:34:16Z</time></trkpt>
<trkpt lat="54.076273" lon="-2.802353">
<ele>31</ele>
<time>2020-02-20T03:34:42Z</time></trkpt>
<trkpt lat="54.077205" lon="-2.802337">
<ele>32</ele>
<time>2020-02-20T03:35:01Z</time></trkpt>
<trkpt lat="54.078892" lon="-2.80128">
<ele>36</ele>
<time>2020-02-20T03:35:37Z</time></trkpt>
<trkpt lat="54.082207" lon="-2.799797">
<ele>37</ele>
<time>2020-02-20T03:36:46Z</time></trkpt>
<trkpt lat="54.082963" lon="-2.800012">
<ele>37</ele>
<time>2020-02-20T03:37:01Z</time></trkpt>
<trkpt lat="54.084007" lon="-2.801102">
<ele>43</ele>
<time>2020-02-20T03:37:26Z</time></trkpt>
<trkpt lat="54.085332" lon="-2.800728">
<ele>48</ele>
<time>2020-02-20T03:37:53Z</time></trkpt>
<trkpt lat="54.08663" lon="-2.800171">
<ele>47</ele>
<time>2020-02-20T03:38:19Z</time></trkpt>
<trkpt lat="54.08941" lon="-2.798392">
<ele>37</ele>
<time>2020-02-20T03:39:19Z</time></trkpt>
<trkpt lat="54.090782" lon="-2.797093">
<ele>38</ele>
<time>2020-02-20T03:39:50Z</time></trkpt>
<trkpt lat="54.092087" lon="-2.796368">
<ele>37</ele>
<time>2020-02-20T03:40:18Z</time></trkpt>
<trkpt lat="54.095776" lon="-2.795254">
<ele>35</ele>
<time>2020-02-20T03:41:33Z</time></trkpt>
<trkpt lat="54.097135" lon="-2.795231">
<ele>31</ele>
<time>2020-02-20T03:42:00Z</time></trkpt>
<trkpt lat="54.099853" lon="-2.794553">
<ele>25</ele>
<time>2020-02-20T03:42:55Z</time></trkpt>
<trkpt lat="54.100716" lon="-2.793564">
<ele>25</ele>
<time>2020-02-20T03:43:16Z</time></trkpt>
<trkpt lat="54.101641" lon="-2.793215">
<ele>24</ele>
<time>2020-02-20T03:43:35Z</time></trkpt>
<trkpt lat="54.10214" lon="-2.79274">
<ele>29</ele>
<time>2020-02-20T03:43:46Z</time></trkpt>
<trkpt lat="54.102594" lon="-2.791479">
<ele>34</ele>
<time>2020-02-20T03:44:04Z</time></trkpt>
<trkpt lat="54.103002" lon="-2.79083">
<ele>32</ele>
<time>2020-02-20T03:44:15Z</time></trkpt>
<trkpt lat="54.104591" lon="-2.79027">
<ele>27</ele>
<time>2020-02-20T03:44:48Z</time></trkpt>
<trkpt lat="54.106832" lon="-2.790152">
<ele>16</ele>
<time>2020-02-20T03:45:32Z</time></trkpt>
<trkpt lat="54.108713" lon="-2.788333">
<ele>19</ele>
<time>2020-02-20T03:46:16Z</time></trkpt>
<trkpt lat="54.1090659" lon="-2.7881713">
<ele>20</ele>
<time>2020-02-20T03:46:23Z</time></trkpt>
<trkpt lat="54.109584" lon="-2.78803">
<ele>21</ele>
<time>2020-02-20T03:46:34Z</time></trkpt>
<trkpt lat="54.110675" lon="-2.787216">
<ele>21</ele>
<time>2020-02-20T03:46:57Z</time></trkpt>
<trkpt lat="54.111086" lon="-2.787113">
<ele>20</ele>
<time>2020-02-20T03:47:06Z</time></trkpt>
<trkpt lat="54.111465" lon="-2.787224">
<ele>20</ele>
<time>2020-02-20T03:47:13Z</time></trkpt>
<trkpt lat="54.112806" lon="-2.787789">
<ele>18</ele>
<time>2020-02-20T03:47:41Z</time></trkpt>
<trkpt lat="54.114094" lon="-2.788677">
<ele>19</ele>
<time>2020-02-20T03:48:09Z</time></trkpt>
<trkpt lat="54.114633" lon="-2.788647">
<ele>19</ele>
<time>2020-02-20T03:48:20Z</time></trkpt>
<trkpt lat="54.115065" lon="-2.788367">
<ele>19</ele>
<time>2020-02-20T03:48:29Z</time></trkpt>
<trkpt lat="54.116262" lon="-2.786933">
<ele>19</ele>
<time>2020-02-20T03:48:58Z</time></trkpt>
<trkpt lat="54.117063" lon="-2.785156">
<ele>20</ele>
<time>2020-02-20T03:49:25Z</time></trkpt>
<trkpt lat="54.117694" lon="-2.78416">
<ele>19</ele>
<time>2020-02-20T03:49:42Z</time></trkpt>
<trkpt lat="54.119991" lon="-2.776449">
<ele>23</ele>
<time>2020-02-20T03:51:24Z</time></trkpt>
<trkpt lat="54.1204" lon="-2.775876">
<ele>24</ele>
<time>2020-02-20T03:51:34Z</time></trkpt>
<trkpt lat="54.121909" lon="-2.774564">
<ele>21</ele>
<time>2020-02-20T03:52:08Z</time></trkpt>
<trkpt lat="54.122382" lon="-2.7742194">
<ele>23</ele>
<time>2020-02-20T03:52:18Z</time></trkpt>
<trkpt lat="54.124372" lon="-2.772879">
<ele>24</ele>
<time>2020-02-20T03:53:01Z</time></trkpt>
<trkpt lat="54.125857" lon="-2.772142">
<ele>21</ele>
<time>2020-02-20T03:53:32Z</time></trkpt>
<trkpt lat="54.1265" lon="-2.771371">
<ele>25</ele>
<time>2020-02-20T03:53:48Z</time></trkpt>
<trkpt lat="54.126663" lon="-2.77144">
<ele>25</ele>
<time>2020-02-20T03:53:51Z</time></trkpt>
<trkpt lat="54.128028" lon="-2.770729">
<ele>22</ele>
<time>2020-02-20T03:54:20Z</time></trkpt>
<trkpt lat="54.128726" lon="-2.770757">
<ele>19</ele>
<time>2020-02-20T03:54:34Z</time></trkpt>
<trkpt lat="54.129109" lon="-2.770228">
<ele>17</ele>
<time>2020-02-20T03:54:44Z</time></trkpt>
<trkpt lat="54.129369" lon="-2.770167">
<ele>16</ele>
<time>2020-02-20T03:54:49Z</time></trkpt>
<trkpt lat="54.131101" lon="-2.771231">
<ele>14</ele>
<time>2020-02-20T03:55:26Z</time></trkpt>
<trkpt lat="54.13271" lon="-2.770466">
<ele>13</ele>
<time>2020-02-20T03:55:59Z</time></trkpt>
<trkpt lat="54.134406" lon="-2.770749">
<ele>9</ele>
<time>2020-02-20T03:56:34Z</time></trkpt>
<trkpt lat="54.135651" lon="-2.771507">
<ele>17</ele>
<time>2020-02-20T03:57:00Z</time></trkpt>
<trkpt lat="54.136417" lon="-2.772407">
<ele>14</ele>
<time>2020-02-20T03:57:19Z</time></trkpt>
<trkpt lat="54.137302" lon="-2.773069">
<ele>13</ele>
<time>2020-02-20T03:57:38Z</time></trkpt>
<trkpt lat="54.140475" lon="-2.776204">
<ele>12</ele>
<time>2020-02-20T03:58:51Z</time></trkpt>
<trkpt lat="54.140921" lon="-2.776337">
<ele>11</ele>
<time>2020-02-20T03:59:01Z</time></trkpt>
<trkpt lat="54.141858" lon="-2.776157">
<ele>10</ele>
<time>2020-02-20T03:59:19Z</time></trkpt>
<trkpt lat="54.142343" lon="-2.775459">
<ele>10</ele>
<time>2020-02-20T03:59:32Z</time></trkpt>
<trkpt lat="54.142664" lon="-2.774051">
<ele>10</ele>
<time>2020-02-20T03:59:50Z</time></trkpt>
<trkpt lat="54.142777" lon="-2.77196">
<ele>11</ele>
<time>2020-02-20T04:00:15Z</time></trkpt>
<trkpt lat="54.143372" lon="-2.768786">
<ele>11</ele>
<time>2020-02-20T04:00:54Z</time></trkpt>
<trkpt lat="54.143716" lon="-2.768617">
<ele>13</ele>
<time>2020-02-20T04:01:01Z</time></trkpt>
<trkpt lat="54.144757" lon="-2.769172">
<ele>21</ele>
<time>2020-02-20T04:01:23Z</time></trkpt>
<trkpt lat="54.145618" lon="-2.768648">
<ele>26</ele>
<time>2020-02-20T04:01:41Z</time></trkpt>
<trkpt lat="54.147375" lon="-2.765103">
<ele>27</ele>
<time>2020-02-20T04:02:36Z</time></trkpt>
<trkpt lat="54.147837" lon="-2.763586">
<ele>23</ele>
<time>2020-02-20T04:02:56Z</time></trkpt>
<trkpt lat="54.148621" lon="-2.7624">
<ele>28</ele>
<time>2020-02-20T04:03:17Z</time></trkpt>
<trkpt lat="54.149204" lon="-2.761946">
<ele>31</ele>
<time>2020-02-20T04:03:29Z</time></trkpt>
<trkpt lat="54.150442" lon="-2.76159">
<ele>41</ele>
<time>2020-02-20T04:03:55Z</time></trkpt>
<trkpt lat="54.152283" lon="-2.761547">
<ele>58</ele>
<time>2020-02-20T04:04:31Z</time></trkpt>
<trkpt lat="54.15474" lon="-2.762631">
<ele>72</ele>
<time>2020-02-20T04:05:22Z</time></trkpt>
<trkpt lat="54.156241" lon="-2.762716">
<ele>78</ele>
<time>2020-02-20T04:05:52Z</time></trkpt>
<trkpt lat="54.157014" lon="-2.762309">
<ele>78</ele>
<time>2020-02-20T04:06:09Z</time></trkpt>
<trkpt lat="54.159345" lon="-2.762126">
<ele>84</ele>
<time>2020-02-20T04:06:55Z</time></trkpt>
<trkpt lat="54.160577" lon="-2.762232">
<ele>86</ele>
<time>2020-02-20T04:07:20Z</time></trkpt>
<trkpt lat="54.160746" lon="-2.761257">
<ele>78</ele>
<time>2020-02-20T04:07:32Z</time></trkpt>
<trkpt lat="54.160849" lon="-2.76122">
<ele>78</ele>
<time>2020-02-20T04:07:34Z</time></trkpt>
<trkpt lat="54.16116" lon="-2.761251">
<ele>80</ele>
<time>2020-02-20T04:07:40Z</time></trkpt>
<trkpt lat="54.162241" lon="-2.762041">
<ele>87</ele>
<time>2020-02-20T04:08:04Z</time></trkpt>
<trkpt lat="54.162903" lon="-2.762088">
<ele>89</ele>
<time>2020-02-20T04:08:17Z</time></trkpt>
<trkpt lat="54.164835" lon="-2.761472">
<ele>74</ele>
<time>2020-02-20T04:08:57Z</time></trkpt>
<trkpt lat="54.166947" lon="-2.761027">
<ele>52</ele>
<time>2020-02-20T04:09:39Z</time></trkpt>
<trkpt lat="54.167372" lon="-2.760571">
<ele>48</ele>
<time>2020-02-20T04:09:49Z</time></trkpt>
<trkpt lat="54.170514" lon="-2.762346">
<ele>40</ele>
<time>2020-02-20T04:10:56Z</time></trkpt>
<trkpt lat="54.172144" lon="-2.7629">
<ele>46</ele>
<time>2020-02-20T04:11:29Z</time></trkpt>
<trkpt lat="54.172423" lon="-2.763079">
<ele>47</ele>
<time>2020-02-20T04:11:35Z</time></trkpt>
<trkpt lat="54.172485" lon="-2.764176">
<ele>53</ele>
<time>2020-02-20T04:11:48Z</time></trkpt>
<trkpt lat="54.17325" lon="-2.764588">
<ele>53</ele>
<time>2020-02-20T04:12:04Z</time></trkpt>
<trkpt lat="54.174495" lon="-2.76478">
<ele>51</ele>
<time>2020-02-20T04:12:29Z</time></trkpt>
<trkpt lat="54.175984" lon="-2.765443">
<ele>49</ele>
<time>2020-02-20T04:13:00Z</time></trkpt>
<trkpt lat="54.176813" lon="-2.766538">
<ele>51</ele>
<time>2020-02-20T04:13:21Z</time></trkpt>
<trkpt lat="54.178017" lon="-2.768609">
<ele>54</ele>
<time>2020-02-20T04:13:55Z</time></trkpt>
<trkpt lat="54.178706" lon="-2.770541">
<ele>47</ele>
<time>2020-02-20T04:14:21Z</time></trkpt>
<trkpt lat="54.178613" lon="-2.772795">
<ele>44</ele>
<time>2020-02-20T04:14:48Z</time></trkpt>
<trkpt lat="54.178084" lon="-2.774649">
<ele>39</ele>
<time>2020-02-20T04:15:12Z</time></trkpt>
<trkpt lat="54.177727" lon="-2.775336">
<ele>37</ele>
<time>2020-02-20T04:15:23Z</time></trkpt>
<trkpt lat="54.178004" lon="-2.776563">
<ele>37</ele>
<time>2020-02-20T04:15:38Z</time></trkpt>
<trkpt lat="54.178988" lon="-2.778083">
<ele>48</ele>
<time>2020-02-20T04:16:05Z</time></trkpt>
<trkpt lat="54.180762" lon="-2.778382">
<ele>69</ele>
<time>2020-02-20T04:16:41Z</time></trkpt>
<trkpt lat="54.18193" lon="-2.778211">
<ele>75</ele>
<time>2020-02-20T04:17:04Z</time></trkpt>
<trkpt lat="54.183092" lon="-2.777181">
<ele>69</ele>
<time>2020-02-20T04:17:30Z</time></trkpt>
<trkpt lat="54.184385" lon="-2.776333">
<ele>60</ele>
<time>2020-02-20T04:17:58Z</time></trkpt>
<trkpt lat="54.185399" lon="-2.775203">
<ele>43</ele>
<time>2020-02-20T04:18:22Z</time></trkpt>
<trkpt lat="54.185659" lon="-2.775089">
<ele>41</ele>
<time>2020-02-20T04:18:28Z</time></trkpt>
<trkpt lat="54.185858" lon="-2.774147">
<ele>37</ele>
<time>2020-02-20T04:18:40Z</time></trkpt>
<trkpt lat="54.185676" lon="-2.773266">
<ele>34</ele>
<time>2020-02-20T04:18:50Z</time></trkpt>
<trkpt lat="54.185789" lon="-2.772914">
<ele>34</ele>
<time>2020-02-20T04:18:55Z</time></trkpt>
<trkpt lat="54.187274" lon="-2.770147">
<ele>33</ele>
<time>2020-02-20T04:19:39Z</time></trkpt>
<trkpt lat="54.18889" lon="-2.768301">
<ele>28</ele>
<time>2020-02-20T04:20:18Z</time></trkpt>
<trkpt lat="54.189244" lon="-2.768168">
<ele>29</ele>
<time>2020-02-20T04:20:25Z</time></trkpt>
<trkpt lat="54.190452" lon="-2.768691">
<ele>31</ele>
<time>2020-02-20T04:20:50Z</time></trkpt>
<trkpt lat="54.190763" lon="-2.768603">
<ele>31</ele>
<time>2020-02-20T04:20:57Z</time></trkpt>
<trkpt lat="54.191226" lon="-2.767379">
<ele>31</ele>
<time>2020-02-20T04:21:14Z</time></trkpt>
<trkpt lat="54.191866" lon="-2.766971">
<ele>33</ele>
<time>2020-02-20T04:21:27Z</time></trkpt>
<trkpt lat="54.193184" lon="-2.764579">
<ele>35</ele>
<time>2020-02-20T04:22:06Z</time></trkpt>
<trkpt lat="54.194258" lon="-2.761553">
<ele>40</ele>
<time>2020-02-20T04:22:47Z</time></trkpt>
<trkpt lat="54.195074" lon="-2.76062">
<ele>44</ele>
<time>2020-02-20T04:23:07Z</time></trkpt>
<trkpt lat="54.196009" lon="-2.758721">
<ele>49</ele>
<time>2020-02-20T04:23:36Z</time></trkpt>
<trkpt lat="54.196323" lon="-2.758506">
<ele>52</ele>
<time>2020-02-20T04:23:43Z</time></trkpt>
<trkpt lat="54.196618" lon="-2.758527">
<ele>57</ele>
<time>2020-02-20T04:23:49Z</time></trkpt>
<trkpt lat="54.197973" lon="-2.759997">
<ele>57</ele>
<time>2020-02-20T04:24:21Z</time></trkpt>
<trkpt lat="54.199059" lon="-2.761714">
<ele>49</ele>
<time>2020-02-20T04:24:51Z</time></trkpt>
<trkpt lat="54.199158" lon="-2.761827">
<ele>48</ele>
<time>2020-02-20T04:24:53Z</time></trkpt>
<trkpt lat="54.19948" lon="-2.762175">
<ele>46</ele>
<time>2020-02-20T04:25:01Z</time></trkpt>
<trkpt lat="54.199799" lon="-2.762201">
<ele>41</ele>
<time>2020-02-20T04:25:07Z</time></trkpt>
<trkpt lat="54.202243" lon="-2.758575">
<ele>28</ele>
<time>2020-02-20T04:26:12Z</time></trkpt>
<trkpt lat="54.203133" lon="-2.757854">
<ele>27</ele>
<time>2020-02-20T04:26:32Z</time></trkpt>
<trkpt lat="54.206342" lon="-2.756492">
<ele>27</ele>
<time>2020-02-20T04:27:38Z</time></trkpt>
<trkpt lat="54.206857" lon="-2.755438">
<ele>26</ele>
<time>2020-02-20T04:27:54Z</time></trkpt>
<trkpt lat="54.207395" lon="-2.75369">
<ele>26</ele>
<time>2020-02-20T04:28:17Z</time></trkpt>
<trkpt lat="54.209035" lon="-2.750447">
<ele>37</ele>
<time>2020-02-20T04:29:07Z</time></trkpt>
<trkpt lat="54.209526" lon="-2.74428">
<ele>29</ele>
<time>2020-02-20T04:30:20Z</time></trkpt>
<trkpt lat="54.209659" lon="-2.743733">
<ele>30</ele>
<time>2020-02-20T04:30:27Z</time></trkpt>
<trkpt lat="54.211087" lon="-2.741598">
<ele>32</ele>
<time>2020-02-20T04:31:05Z</time></trkpt>
<trkpt lat="54.2115" lon="-2.742216">
<ele>30</ele>
<time>2020-02-20T04:31:16Z</time></trkpt>
<trkpt lat="54.212421" lon="-2.742808">
<ele>31</ele>
<time>2020-02-20T04:31:36Z</time></trkpt>
<trkpt lat="54.213469" lon="-2.744107">
<ele>31</ele>
<time>2020-02-20T04:32:02Z</time></trkpt>
<trkpt lat="54.214415" lon="-2.746267">
<ele>31</ele>
<time>2020-02-20T04:32:34Z</time></trkpt>
<trkpt lat="54.214551" lon="-2.74706">
<ele>30</ele>
<time>2020-02-20T04:32:43Z</time></trkpt>
<trkpt lat="54.214406" lon="-2.748424">
<ele>29</ele>
<time>2020-02-20T04:33:00Z</time></trkpt>
<trkpt lat="54.214841" lon="-2.750127">
<ele>28</ele>
<time>2020-02-20T04:33:21Z</time></trkpt>
<trkpt lat="54.215438" lon="-2.751024">
<ele>33</ele>
<time>2020-02-20T04:33:37Z</time></trkpt>
<trkpt lat="54.215736" lon="-2.751132">
<ele>34</ele>
<time>2020-02-20T04:33:43Z</time></trkpt>
<trkpt lat="54.217451" lon="-2.751057">
<ele>35</ele>
<time>2020-02-20T04:34:18Z</time></trkpt>
<trkpt lat="54.220236" lon="-2.752838">
<ele>31</ele>
<time>2020-02-20T04:35:17Z</time></trkpt>
<trkpt lat="54.221062" lon="-2.75292">
<ele>29</ele>
<time>2020-02-20T04:35:34Z</time></trkpt>
<trkpt lat="54.221867" lon="-2.753738">
<ele>31</ele>
<time>2020-02-20T04:35:53Z</time></trkpt>
<trkpt lat="54.222162" lon="-2.754731">
<ele>32</ele>
<time>2020-02-20T04:36:06Z</time></trkpt>
<trkpt lat="54.224822" lon="-2.757628">
<ele>33</ele>
<time>2020-02-20T04:37:09Z</time></trkpt>
<trkpt lat="54.225184" lon="-2.758223">
<ele>31</ele>
<time>2020-02-20T04:37:19Z</time></trkpt>
<trkpt lat="54.227362" lon="-2.760449">
<ele>31</ele>
<time>2020-02-20T04:38:10Z</time></trkpt>
<trkpt lat="54.229132" lon="-2.760044">
<ele>34</ele>
<time>2020-02-20T04:38:46Z</time></trkpt>
<trkpt lat="54.229527" lon="-2.758825">
<ele>35</ele>
<time>2020-02-20T04:39:02Z</time></trkpt>
<trkpt lat="54.229947" lon="-2.758553">
<ele>37</ele>
<time>2020-02-20T04:39:11Z</time></trkpt>
<trkpt lat="54.231382" lon="-2.75786">
<ele>41</ele>
<time>2020-02-20T04:39:41Z</time></trkpt>
<trkpt lat="54.2329" lon="-2.757738">
<ele>44</ele>
<time>2020-02-20T04:40:11Z</time></trkpt>
<trkpt lat="54.233537" lon="-2.757401">
<ele>48</ele>
<time>2020-02-20T04:40:25Z</time></trkpt>
<trkpt lat="54.234341" lon="-2.756569">
<ele>51</ele>
<time>2020-02-20T04:40:43Z</time></trkpt>
<trkpt lat="54.237583" lon="-2.754937">
<ele>51</ele>
<time>2020-02-20T04:41:51Z</time></trkpt>
<trkpt lat="54.238921" lon="-2.754422">
<ele>55</ele>
<time>2020-02-20T04:42:19Z</time></trkpt>
<trkpt lat="54.241588" lon="-2.754704">
<ele>47</ele>
<time>2020-02-20T04:43:12Z</time></trkpt>
<trkpt lat="54.242387" lon="-2.75449">
<ele>48</ele>
<time>2020-02-20T04:43:28Z</time></trkpt>
<trkpt lat="54.242937" lon="-2.754049">
<ele>49</ele>
<time>2020-02-20T04:43:41Z</time></trkpt>
<trkpt lat="54.243792" lon="-2.75412">
<ele>49</ele>
<time>2020-02-20T04:43:58Z</time></trkpt>
<trkpt lat="54.244023" lon="-2.753092">
<ele>50</ele>
<time>2020-02-20T04:44:11Z</time></trkpt>
<trkpt lat="54.244169" lon="-2.752905">
<ele>50</ele>
<time>2020-02-20T04:44:14Z</time></trkpt>
<trkpt lat="54.245697" lon="-2.751798">
<ele>52</ele>
<time>2020-02-20T04:44:47Z</time></trkpt>
<trkpt lat="54.246901" lon="-2.751148">
<ele>55</ele>
<time>2020-02-20T04:45:13Z</time></trkpt>
<trkpt lat="54.249012" lon="-2.74892">
<ele>52</ele>
<time>2020-02-20T04:46:02Z</time></trkpt>
<trkpt lat="54.249958" lon="-2.747683">
<ele>49</ele>
<time>2020-02-20T04:46:26Z</time></trkpt>
<trkpt lat="54.251159" lon="-2.747374">
<ele>47</ele>
<time>2020-02-20T04:46:51Z</time></trkpt>
<trkpt lat="54.251672" lon="-2.746797">
<ele>47</ele>
<time>2020-02-20T04:47:03Z</time></trkpt>
<trkpt lat="54.254365" lon="-2.748874">
<ele>56</ele>
<time>2020-02-20T04:48:02Z</time></trkpt>
<trkpt lat="54.255728" lon="-2.748908">
<ele>55</ele>
<time>2020-02-20T04:48:29Z</time></trkpt>
<trkpt lat="54.258648" lon="-2.748075">
<ele>47</ele>
<time>2020-02-20T04:49:29Z</time></trkpt>
<trkpt lat="54.260275" lon="-2.746972">
<ele>47</ele>
<time>2020-02-20T04:50:04Z</time></trkpt>
<trkpt lat="54.260678" lon="-2.747082">
<ele>48</ele>
<time>2020-02-20T04:50:12Z</time></trkpt>
<trkpt lat="54.261249" lon="-2.747717">
<ele>51</ele>
<time>2020-02-20T04:50:26Z</time></trkpt>
<trkpt lat="54.261861" lon="-2.747813">
<ele>53</ele>
<time>2020-02-20T04:50:38Z</time></trkpt>
<trkpt lat="54.26406" lon="-2.747317">
<ele>60</ele>
<time>2020-02-20T04:51:22Z</time></trkpt>
<trkpt lat="54.264817" lon="-2.746862">
<ele>60</ele>
<time>2020-02-20T04:51:38Z</time></trkpt>
<trkpt lat="54.26563" lon="-2.746986">
<ele>59</ele>
<time>2020-02-20T04:51:55Z</time></trkpt>
<trkpt lat="54.26716" lon="-2.7466">
<ele>58</ele>
<time>2020-02-20T04:52:26Z</time></trkpt>
<trkpt lat="54.270413" lon="-2.745304">
<ele>66</ele>
<time>2020-02-20T04:53:33Z</time></trkpt>
<trkpt lat="54.271266" lon="-2.745897">
<ele>72</ele>
<time>2020-02-20T04:53:51Z</time></trkpt>
<trkpt lat="54.271878" lon="-2.746627">
<ele>77</ele>
<time>2020-02-20T04:54:06Z</time></trkpt>
<trkpt lat="54.273118" lon="-2.746917">
<ele>69</ele>
<time>2020-02-20T04:54:31Z</time></trkpt>
<trkpt lat="54.273939" lon="-2.747496">
<ele>60</ele>
<time>2020-02-20T04:54:49Z</time></trkpt>
<trkpt lat="54.275034" lon="-2.747772">
<ele>50</ele>
<time>2020-02-20T04:55:11Z</time></trkpt>
<trkpt lat="54.276724" lon="-2.74717">
<ele>46</ele>
<time>2020-02-20T04:55:46Z</time></trkpt>
<trkpt lat="54.277084" lon="-2.746164">
<ele>49</ele>
<time>2020-02-20T04:56:00Z</time></trkpt>
<trkpt lat="54.277778" lon="-2.745628">
<ele>49</ele>
<time>2020-02-20T04:56:15Z</time></trkpt>
<trkpt lat="54.278245" lon="-2.744936">
<ele>50</ele>
<time>2020-02-20T04:56:27Z</time></trkpt>
<trkpt lat="54.27846" lon="-2.744202">
<ele>50</ele>
<time>2020-02-20T04:56:37Z</time></trkpt>
<trkpt lat="54.279177" lon="-2.743162">
<ele>49</ele>
<time>2020-02-20T04:56:56Z</time></trkpt>
<trkpt lat="54.28007" lon="-2.743162">
<ele>49</ele>
<time>2020-02-20T04:57:14Z</time></trkpt>
<trkpt lat="54.280739" lon="-2.742682">
<ele>52</ele>
<time>2020-02-20T04:57:28Z</time></trkpt>
<trkpt lat="54.281503" lon="-2.742731">
<ele>52</ele>
<time>2020-02-20T04:57:43Z</time></trkpt>
<trkpt lat="54.282281" lon="-2.741893">
<ele>56</ele>
<time>2020-02-20T04:58:02Z</time></trkpt>
<trkpt lat="54.283284" lon="-2.741615">
<ele>59</ele>
<time>2020-02-20T04:58:22Z</time></trkpt>
<trkpt lat="54.283787" lon="-2.741295">
<ele>63</ele>
<time>2020-02-20T04:58:33Z</time></trkpt>
<trkpt lat="54.287155" lon="-2.738651">
<ele>72</ele>
<time>2020-02-20T04:59:47Z</time></trkpt>
<trkpt lat="54.290279" lon="-2.738327">
<ele>67</ele>
<time>2020-02-20T05:00:50Z</time></trkpt>
<trkpt lat="54.291626" lon="-2.738689">
<ele>62</ele>
<time>2020-02-20T05:01:17Z</time></trkpt>
<trkpt lat="54.292668" lon="-2.739401">
<ele>60</ele>
<time>2020-02-20T05:01:40Z</time></trkpt>
<trkpt lat="54.293179" lon="-2.739495">
<ele>62</ele>
<time>2020-02-20T05:01:50Z</time></trkpt>
<trkpt lat="54.294304" lon="-2.738976">
<ele>60</ele>
<time>2020-02-20T05:02:13Z</time></trkpt>
<trkpt lat="54.295728" lon="-2.739198">
<ele>58</ele>
<time>2020-02-20T05:02:42Z</time></trkpt>
<trkpt lat="54.295983" lon="-2.739085">
<ele>58</ele>
<time>2020-02-20T05:02:47Z</time></trkpt>
<trkpt lat="54.296561" lon="-2.739117">
<ele>57</ele>
<time>2020-02-20T05:02:59Z</time></trkpt>
<trkpt lat="54.298032" lon="-2.741095">
<ele>55</ele>
<time>2020-02-20T05:03:36Z</time></trkpt>
<trkpt lat="54.300447" lon="-2.742856">
<ele>53</ele>
<time>2020-02-20T05:04:29Z</time></trkpt>
<trkpt lat="54.301205" lon="-2.743827">
<ele>50</ele>
<time>2020-02-20T05:04:48Z</time></trkpt>
<trkpt lat="54.3021" lon="-2.744283">
<ele>49</ele>
<time>2020-02-20T05:05:07Z</time></trkpt>
<trkpt lat="54.303565" lon="-2.744482">
<ele>49</ele>
<time>2020-02-20T05:05:36Z</time></trkpt>
<trkpt lat="54.30455" lon="-2.744392">
<ele>49</ele>
<time>2020-02-20T05:05:56Z</time></trkpt>
<trkpt lat="54.306056" lon="-2.743087">
<ele>49</ele>
<time>2020-02-20T05:06:30Z</time></trkpt>
<trkpt lat="54.307487" lon="-2.742363">
<ele>48</ele>
<time>2020-02-20T05:06:59Z</time></trkpt>
<trkpt lat="54.308884" lon="-2.74217">
<ele>51</ele>
<time>2020-02-20T05:07:28Z</time></trkpt>
<trkpt lat="54.310856" lon="-2.741346">
<ele>43</ele>
<time>2020-02-20T05:08:08Z</time></trkpt>
<trkpt lat="54.312327" lon="-2.741195">
<ele>44</ele>
<time>2020-02-20T05:08:38Z</time></trkpt>
<trkpt lat="54.315095" lon="-2.742223">
<ele>44</ele>
<time>2020-02-20T05:09:35Z</time></trkpt>
<trkpt lat="54.316674" lon="-2.741866">
<ele>42</ele>
<time>2020-02-20T05:10:06Z</time></trkpt>
<trkpt lat="54.316809" lon="-2.742024">
<ele>42</ele>
<time>2020-02-20T05:10:10Z</time></trkpt>
<trkpt lat="54.317137" lon="-2.741712">
<ele>43</ele>
<time>2020-02-20T05:10:17Z</time></trkpt>
<trkpt lat="54.317902" lon="-2.741595">
<ele>43</ele>
<time>2020-02-20T05:10:33Z</time></trkpt>
<trkpt lat="54.318636" lon="-2.74179">
<ele>43</ele>
<time>2020-02-20T05:10:47Z</time></trkpt>
<trkpt lat="54.319408" lon="-2.742492">
<ele>44</ele>
<time>2020-02-20T05:11:05Z</time></trkpt>
<trkpt lat="54.320512" lon="-2.743906">
<ele>44</ele>
<time>2020-02-20T05:11:33Z</time></trkpt>
<trkpt lat="54.320782" lon="-2.744943">
<ele>46</ele>
<time>2020-02-20T05:11:46Z</time></trkpt>
<trkpt lat="54.322203" lon="-2.745332">
<ele>50</ele>
<time>2020-02-20T05:12:15Z</time></trkpt>
<trkpt lat="54.322891" lon="-2.746453">
<ele>51</ele>
<time>2020-02-20T05:12:34Z</time></trkpt>
<trkpt lat="54.324066" lon="-2.747345">
<ele>53</ele>
<time>2020-02-20T05:12:59Z</time></trkpt>
<trkpt lat="54.326022" lon="-2.747621">
<ele>55</ele>
<time>2020-02-20T05:13:39Z</time></trkpt>
<trkpt lat="54.327053" lon="-2.747615">
<ele>57</ele>
<time>2020-02-20T05:13:59Z</time></trkpt>
<trkpt lat="54.328373" lon="-2.747225">
<ele>59</ele>
<time>2020-02-20T05:14:26Z</time></trkpt>
<trkpt lat="54.329283" lon="-2.747297">
<ele>57</ele>
<time>2020-02-20T05:14:45Z</time></trkpt>
<trkpt lat="54.329318" lon="-2.747335">
<ele>57</ele>
<time>2020-02-20T05:14:45Z</time></trkpt>
<trkpt lat="54.330398" lon="-2.747381">
<ele>53</ele>
<time>2020-02-20T05:15:07Z</time></trkpt>
<trkpt lat="54.331235" lon="-2.747971">
<ele>53</ele>
<time>2020-02-20T05:15:25Z</time></trkpt>
<trkpt lat="54.331998" lon="-2.749322">
<ele>53</ele>
<time>2020-02-20T05:15:47Z</time></trkpt>
<trkpt lat="54.333382" lon="-2.749336">
<ele>55</ele>
<time>2020-02-20T05:16:15Z</time></trkpt>
<trkpt lat="54.334115" lon="-2.748658">
<ele>54</ele>
<time>2020-02-20T05:16:32Z</time></trkpt>
<trkpt lat="54.334764" lon="-2.748349">
<ele>53</ele>
<time>2020-02-20T05:16:45Z</time></trkpt>
<trkpt lat="54.335855" lon="-2.748794">
<ele>54</ele>
<time>2020-02-20T05:17:08Z</time></trkpt>
<trkpt lat="54.339839" lon="-2.748562">
<ele>56</ele>
<time>2020-02-20T05:18:27Z</time></trkpt>
<trkpt lat="54.34095" lon="-2.748871">
<ele>62</ele>
<time>2020-02-20T05:18:50Z</time></trkpt>
<trkpt lat="54.3419" lon="-2.749901">
<ele>67</ele>
<time>2020-02-20T05:19:12Z</time></trkpt>
<trkpt lat="54.343347" lon="-2.750548">
<ele>63</ele>
<time>2020-02-20T05:19:42Z</time></trkpt>
<trkpt lat="54.345073" lon="-2.750645">
<ele>52</ele>
<time>2020-02-20T05:20:17Z</time></trkpt>
<trkpt lat="54.345537" lon="-2.751345">
<ele>52</ele>
<time>2020-02-20T05:20:29Z</time></trkpt>
<trkpt lat="54.346161" lon="-2.753086">
<ele>56</ele>
<time>2020-02-20T05:20:53Z</time></trkpt>
<trkpt lat="54.346418" lon="-2.753391">
<ele>57</ele>
<time>2020-02-20T05:21:00Z</time></trkpt>
<trkpt lat="54.347844" lon="-2.754196">
<ele>59</ele>
<time>2020-02-20T05:21:30Z</time></trkpt>
<trkpt lat="54.348688" lon="-2.755266">
<ele>60</ele>
<time>2020-02-20T05:21:51Z</time></trkpt>
<trkpt lat="54.349109" lon="-2.757429">
<ele>57</ele>
<time>2020-02-20T05:22:17Z</time></trkpt>
<trkpt lat="54.349437" lon="-2.758224">
<ele>56</ele>
<time>2020-02-20T05:22:29Z</time></trkpt>
<trkpt lat="54.350276" lon="-2.758659">
<ele>53</ele>
<time>2020-02-20T05:22:46Z</time></trkpt>
<trkpt lat="54.351432" lon="-2.759566">
<ele>54</ele>
<time>2020-02-20T05:23:12Z</time></trkpt>
<trkpt lat="54.352859" lon="-2.761193">
<ele>56</ele>
<time>2020-02-20T05:23:46Z</time></trkpt>
<trkpt lat="54.354731" lon="-2.764089">
<ele>61</ele>
<time>2020-02-20T05:24:37Z</time></trkpt>
<trkpt lat="54.355435" lon="-2.765703">
<ele>62</ele>
<time>2020-02-20T05:25:00Z</time></trkpt>
<trkpt lat="54.355105" lon="-2.766397">
<ele>63</ele>
<time>2020-02-20T05:25:11Z</time></trkpt>
<trkpt lat="54.354817" lon="-2.76739">
<ele>64</ele>
<time>2020-02-20T05:25:23Z</time></trkpt>
<trkpt lat="54.354999" lon="-2.76989">
<ele>86</ele>
<time>2020-02-20T05:25:53Z</time></trkpt>
<trkpt lat="54.355512" lon="-2.771022">
<ele>89</ele>
<time>2020-02-20T05:26:10Z</time></trkpt>
<trkpt lat="54.355639" lon="-2.772263">
<ele>90</ele>
<time>2020-02-20T05:26:24Z</time></trkpt>
<trkpt lat="54.355503" lon="-2.772597">
<ele>91</ele>
<time>2020-02-20T05:26:29Z</time></trkpt>
<trkpt lat="54.355541" lon="-2.774514">
<ele>88</ele>
<time>2020-02-20T05:26:52Z</time></trkpt>
<trkpt lat="54.355328" lon="-2.776759">
<ele>94</ele>
<time>2020-02-20T05:27:18Z</time></trkpt>
<trkpt lat="54.355553" lon="-2.777918">
<ele>100</ele>
<time>2020-02-20T05:27:32Z</time></trkpt>
<trkpt lat="54.355261" lon="-2.784575">
<ele>127</ele>
<time>2020-02-20T05:28:50Z</time></trkpt>
<trkpt lat="54.357099" lon="-2.78554">
<ele>126</ele>
<time>2020-02-20T05:29:29Z</time></trkpt>
<trkpt lat="54.357411" lon="-2.7858">
<ele>127</ele>
<time>2020-02-20T05:29:36Z</time></trkpt>
<trkpt lat="54.357643" lon="-2.786407">
<ele>126</ele>
<time>2020-02-20T05:29:44Z</time></trkpt>
<trkpt lat="54.358732" lon="-2.790528">
<ele>116</ele>
<time>2020-02-20T05:30:37Z</time></trkpt>
<trkpt lat="54.35882" lon="-2.796572">
<ele>110</ele>
<time>2020-02-20T05:31:48Z</time></trkpt>
<trkpt lat="54.359874" lon="-2.799576">
<ele>106</ele>
<time>2020-02-20T05:32:29Z</time></trkpt>
<trkpt lat="54.36073" lon="-2.80095">
<ele>110</ele>
<time>2020-02-20T05:32:52Z</time></trkpt>
<trkpt lat="54.360872" lon="-2.801873">
<ele>111</ele>
<time>2020-02-20T05:33:03Z</time></trkpt>
</trkseg>
</trk>
</gpx>